<?xml version="1.0" encoding="UTF-8" standalone="no" ?>
<gpx xmlns="http://www.topografix.com/GPX/1/1" xmlns:xsi="http://www.w3.org/2001/XMLSchema-instance" xsi:schemaLocation="http://www.topografix.com/GPX/1/1 http://www.topografix.com/GPX/1/1/gpx.xsd" version="1.1" creator="VisuGPX - https://www.visugpx.com">
  <metadata>
    <name>sommet colomb</name>
    <desc><![CDATA[sommet colomb en ski de ranndo]]></desc>
  </metadata>
  <trk>
    <name><![CDATA[06-JAN-13 15:19:59]]></name>
    <trkseg>
      <trkpt lat="45.22701" lon="5.99388">
        <ele>1297.92</ele>
        <time>2012-12-29T07:06:51Z</time>
      </trkpt>
      <trkpt lat="45.22699" lon="5.99386">
        <ele>1297.92</ele>
        <time>2012-12-29T07:07:12Z</time>
      </trkpt>
      <trkpt lat="45.227" lon="5.99385">
        <ele>1297.92</ele>
        <time>2012-12-29T07:07:35Z</time>
      </trkpt>
      <trkpt lat="45.227" lon="5.99386">
        <ele>1298.4</ele>
        <time>2012-12-29T07:07:59Z</time>
      </trkpt>
      <trkpt lat="45.22701" lon="5.9939">
        <ele>1298.4</ele>
        <time>2012-12-29T07:08:14Z</time>
      </trkpt>
      <trkpt lat="45.22703" lon="5.9939">
        <ele>1298.4</ele>
        <time>2012-12-29T07:08:33Z</time>
      </trkpt>
      <trkpt lat="45.22703" lon="5.9939">
        <ele>1298.4</ele>
        <time>2012-12-29T07:08:47Z</time>
      </trkpt>
      <trkpt lat="45.22703" lon="5.99392">
        <ele>1298.4</ele>
        <time>2012-12-29T07:09:05Z</time>
      </trkpt>
      <trkpt lat="45.22703" lon="5.99394">
        <ele>1298.4</ele>
        <time>2012-12-29T07:09:27Z</time>
      </trkpt>
      <trkpt lat="45.22703" lon="5.99395">
        <ele>1298.4</ele>
        <time>2012-12-29T07:09:43Z</time>
      </trkpt>
      <trkpt lat="45.22703" lon="5.99396">
        <ele>1298.4</ele>
        <time>2012-12-29T07:10:04Z</time>
      </trkpt>
      <trkpt lat="45.22702" lon="5.99393">
        <ele>1298.4</ele>
        <time>2012-12-29T07:10:15Z</time>
      </trkpt>
      <trkpt lat="45.22701" lon="5.99393">
        <ele>1298.4</ele>
        <time>2012-12-29T07:10:24Z</time>
      </trkpt>
      <trkpt lat="45.22691" lon="5.99405">
        <ele>1298.4</ele>
        <time>2012-12-29T07:10:36Z</time>
      </trkpt>
      <trkpt lat="45.22683" lon="5.99408">
        <ele>1298.88</ele>
        <time>2012-12-29T07:10:45Z</time>
      </trkpt>
      <trkpt lat="45.2267" lon="5.99409">
        <ele>1298.88</ele>
        <time>2012-12-29T07:10:56Z</time>
      </trkpt>
      <trkpt lat="45.22661" lon="5.99408">
        <ele>1298.88</ele>
        <time>2012-12-29T07:11:03Z</time>
      </trkpt>
      <trkpt lat="45.22646" lon="5.99407">
        <ele>1298.88</ele>
        <time>2012-12-29T07:11:17Z</time>
      </trkpt>
      <trkpt lat="45.22624" lon="5.99398">
        <ele>1298.88</ele>
        <time>2012-12-29T07:11:31Z</time>
      </trkpt>
      <trkpt lat="45.22604" lon="5.99391">
        <ele>1298.88</ele>
        <time>2012-12-29T07:11:46Z</time>
      </trkpt>
      <trkpt lat="45.22589" lon="5.99388">
        <ele>1297.92</ele>
        <time>2012-12-29T07:11:57Z</time>
      </trkpt>
      <trkpt lat="45.22571" lon="5.99383">
        <ele>1297.44</ele>
        <time>2012-12-29T07:12:11Z</time>
      </trkpt>
      <trkpt lat="45.22566" lon="5.99382">
        <ele>1297.44</ele>
        <time>2012-12-29T07:12:15Z</time>
      </trkpt>
      <trkpt lat="45.22547" lon="5.99381">
        <ele>1297.44</ele>
        <time>2012-12-29T07:12:30Z</time>
      </trkpt>
      <trkpt lat="45.22544" lon="5.9938">
        <ele>1297.44</ele>
        <time>2012-12-29T07:12:33Z</time>
      </trkpt>
      <trkpt lat="45.22531" lon="5.99391">
        <ele>1297.44</ele>
        <time>2012-12-29T07:12:46Z</time>
      </trkpt>
      <trkpt lat="45.22525" lon="5.99398">
        <ele>1297.44</ele>
        <time>2012-12-29T07:12:54Z</time>
      </trkpt>
      <trkpt lat="45.22519" lon="5.99407">
        <ele>1298.4</ele>
        <time>2012-12-29T07:13:01Z</time>
      </trkpt>
      <trkpt lat="45.22514" lon="5.99418">
        <ele>1298.4</ele>
        <time>2012-12-29T07:13:07Z</time>
      </trkpt>
      <trkpt lat="45.22511" lon="5.99432">
        <ele>1298.4</ele>
        <time>2012-12-29T07:13:14Z</time>
      </trkpt>
      <trkpt lat="45.22511" lon="5.99435">
        <ele>1298.4</ele>
        <time>2012-12-29T07:13:16Z</time>
      </trkpt>
      <trkpt lat="45.22515" lon="5.99447">
        <ele>1298.4</ele>
        <time>2012-12-29T07:13:23Z</time>
      </trkpt>
      <trkpt lat="45.22512" lon="5.99473">
        <ele>1298.4</ele>
        <time>2012-12-29T07:13:35Z</time>
      </trkpt>
      <trkpt lat="45.22504" lon="5.99501">
        <ele>1298.4</ele>
        <time>2012-12-29T07:13:51Z</time>
      </trkpt>
      <trkpt lat="45.22496" lon="5.99531">
        <ele>1297.44</ele>
        <time>2012-12-29T07:14:05Z</time>
      </trkpt>
      <trkpt lat="45.22485" lon="5.99554">
        <ele>1296.48</ele>
        <time>2012-12-29T07:14:19Z</time>
      </trkpt>
      <trkpt lat="45.22484" lon="5.99557">
        <ele>1296.48</ele>
        <time>2012-12-29T07:14:20Z</time>
      </trkpt>
      <trkpt lat="45.22481" lon="5.99563">
        <ele>1296.48</ele>
        <time>2012-12-29T07:14:24Z</time>
      </trkpt>
      <trkpt lat="45.22472" lon="5.99581">
        <ele>1295.99</ele>
        <time>2012-12-29T07:14:37Z</time>
      </trkpt>
      <trkpt lat="45.22469" lon="5.9959">
        <ele>1295.99</ele>
        <time>2012-12-29T07:14:43Z</time>
      </trkpt>
      <trkpt lat="45.22467" lon="5.99593">
        <ele>1295.99</ele>
        <time>2012-12-29T07:14:45Z</time>
      </trkpt>
      <trkpt lat="45.22463" lon="5.99602">
        <ele>1295.99</ele>
        <time>2012-12-29T07:14:50Z</time>
      </trkpt>
      <trkpt lat="45.22461" lon="5.99609">
        <ele>1295.99</ele>
        <time>2012-12-29T07:14:55Z</time>
      </trkpt>
      <trkpt lat="45.22449" lon="5.99629">
        <ele>1295.51</ele>
        <time>2012-12-29T07:15:10Z</time>
      </trkpt>
      <trkpt lat="45.22431" lon="5.99654">
        <ele>1295.51</ele>
        <time>2012-12-29T07:15:25Z</time>
      </trkpt>
      <trkpt lat="45.22421" lon="5.99659">
        <ele>1295.51</ele>
        <time>2012-12-29T07:15:32Z</time>
      </trkpt>
      <trkpt lat="45.22409" lon="5.99661">
        <ele>1295.51</ele>
        <time>2012-12-29T07:15:41Z</time>
      </trkpt>
      <trkpt lat="45.22389" lon="5.99658">
        <ele>1296.96</ele>
        <time>2012-12-29T07:15:56Z</time>
      </trkpt>
      <trkpt lat="45.22383" lon="5.99653">
        <ele>1297.44</ele>
        <time>2012-12-29T07:16:02Z</time>
      </trkpt>
      <trkpt lat="45.22368" lon="5.99633">
        <ele>1297.92</ele>
        <time>2012-12-29T07:16:17Z</time>
      </trkpt>
      <trkpt lat="45.22357" lon="5.99619">
        <ele>1298.4</ele>
        <time>2012-12-29T07:16:29Z</time>
      </trkpt>
      <trkpt lat="45.22345" lon="5.99607">
        <ele>1298.88</ele>
        <time>2012-12-29T07:16:43Z</time>
      </trkpt>
      <trkpt lat="45.22335" lon="5.99601">
        <ele>1300.32</ele>
        <time>2012-12-29T07:16:56Z</time>
      </trkpt>
      <trkpt lat="45.22328" lon="5.99597">
        <ele>1301.76</ele>
        <time>2012-12-29T07:17:08Z</time>
      </trkpt>
      <trkpt lat="45.22319" lon="5.99586">
        <ele>1304.17</ele>
        <time>2012-12-29T07:17:21Z</time>
      </trkpt>
      <trkpt lat="45.22305" lon="5.9958">
        <ele>1306.57</ele>
        <time>2012-12-29T07:17:37Z</time>
      </trkpt>
      <trkpt lat="45.22297" lon="5.99576">
        <ele>1308.97</ele>
        <time>2012-12-29T07:17:51Z</time>
      </trkpt>
      <trkpt lat="45.2229" lon="5.99579">
        <ele>1311.38</ele>
        <time>2012-12-29T07:18:05Z</time>
      </trkpt>
      <trkpt lat="45.22284" lon="5.99583">
        <ele>1313.3</ele>
        <time>2012-12-29T07:18:19Z</time>
      </trkpt>
      <trkpt lat="45.22279" lon="5.9959">
        <ele>1316.66</ele>
        <time>2012-12-29T07:18:36Z</time>
      </trkpt>
      <trkpt lat="45.22278" lon="5.99594">
        <ele>1318.1</ele>
        <time>2012-12-29T07:18:46Z</time>
      </trkpt>
      <trkpt lat="45.22274" lon="5.99604">
        <ele>1319.55</ele>
        <time>2012-12-29T07:19:01Z</time>
      </trkpt>
      <trkpt lat="45.22269" lon="5.99616">
        <ele>1322.43</ele>
        <time>2012-12-29T07:19:15Z</time>
      </trkpt>
      <trkpt lat="45.22266" lon="5.99625">
        <ele>1324.83</ele>
        <time>2012-12-29T07:19:28Z</time>
      </trkpt>
      <trkpt lat="45.22256" lon="5.99631">
        <ele>1327.24</ele>
        <time>2012-12-29T07:19:44Z</time>
      </trkpt>
      <trkpt lat="45.22254" lon="5.99642">
        <ele>1329.16</ele>
        <time>2012-12-29T07:19:58Z</time>
      </trkpt>
      <trkpt lat="45.22256" lon="5.99656">
        <ele>1331.08</ele>
        <time>2012-12-29T07:20:11Z</time>
      </trkpt>
      <trkpt lat="45.22259" lon="5.99669">
        <ele>1332.52</ele>
        <time>2012-12-29T07:20:26Z</time>
      </trkpt>
      <trkpt lat="45.22264" lon="5.9968">
        <ele>1333.97</ele>
        <time>2012-12-29T07:20:39Z</time>
      </trkpt>
      <trkpt lat="45.2227" lon="5.99692">
        <ele>1335.89</ele>
        <time>2012-12-29T07:20:53Z</time>
      </trkpt>
      <trkpt lat="45.22274" lon="5.99698">
        <ele>1336.37</ele>
        <time>2012-12-29T07:21:02Z</time>
      </trkpt>
      <trkpt lat="45.22279" lon="5.99701">
        <ele>1337.81</ele>
        <time>2012-12-29T07:21:13Z</time>
      </trkpt>
      <trkpt lat="45.22283" lon="5.99709">
        <ele>1340.22</ele>
        <time>2012-12-29T07:21:25Z</time>
      </trkpt>
      <trkpt lat="45.22289" lon="5.99716">
        <ele>1341.66</ele>
        <time>2012-12-29T07:21:36Z</time>
      </trkpt>
      <trkpt lat="45.22292" lon="5.9972">
        <ele>1344.06</ele>
        <time>2012-12-29T07:21:48Z</time>
      </trkpt>
      <trkpt lat="45.22296" lon="5.99728">
        <ele>1346.94</ele>
        <time>2012-12-29T07:22:03Z</time>
      </trkpt>
      <trkpt lat="45.223" lon="5.99737">
        <ele>1349.35</ele>
        <time>2012-12-29T07:22:16Z</time>
      </trkpt>
      <trkpt lat="45.2231" lon="5.99746">
        <ele>1352.23</ele>
        <time>2012-12-29T07:22:31Z</time>
      </trkpt>
      <trkpt lat="45.22317" lon="5.99754">
        <ele>1354.63</ele>
        <time>2012-12-29T07:22:44Z</time>
      </trkpt>
      <trkpt lat="45.22323" lon="5.99762">
        <ele>1356.56</ele>
        <time>2012-12-29T07:22:57Z</time>
      </trkpt>
      <trkpt lat="45.22325" lon="5.99774">
        <ele>1359.44</ele>
        <time>2012-12-29T07:23:12Z</time>
      </trkpt>
      <trkpt lat="45.22325" lon="5.99787">
        <ele>1361.84</ele>
        <time>2012-12-29T07:23:26Z</time>
      </trkpt>
      <trkpt lat="45.2233" lon="5.99802">
        <ele>1364.25</ele>
        <time>2012-12-29T07:23:41Z</time>
      </trkpt>
      <trkpt lat="45.22336" lon="5.99814">
        <ele>1366.17</ele>
        <time>2012-12-29T07:23:53Z</time>
      </trkpt>
      <trkpt lat="45.22343" lon="5.99829">
        <ele>1367.61</ele>
        <time>2012-12-29T07:24:07Z</time>
      </trkpt>
      <trkpt lat="45.22348" lon="5.99839">
        <ele>1369.54</ele>
        <time>2012-12-29T07:24:20Z</time>
      </trkpt>
      <trkpt lat="45.22353" lon="5.99849">
        <ele>1370.5</ele>
        <time>2012-12-29T07:24:32Z</time>
      </trkpt>
      <trkpt lat="45.2236" lon="5.99862">
        <ele>1371.94</ele>
        <time>2012-12-29T07:24:47Z</time>
      </trkpt>
      <trkpt lat="45.22367" lon="5.9987">
        <ele>1373.86</ele>
        <time>2012-12-29T07:24:58Z</time>
      </trkpt>
      <trkpt lat="45.22375" lon="5.99883">
        <ele>1375.3</ele>
        <time>2012-12-29T07:25:12Z</time>
      </trkpt>
      <trkpt lat="45.22382" lon="5.99897">
        <ele>1377.71</ele>
        <time>2012-12-29T07:25:25Z</time>
      </trkpt>
      <trkpt lat="45.22383" lon="5.99901">
        <ele>1378.19</ele>
        <time>2012-12-29T07:25:29Z</time>
      </trkpt>
      <trkpt lat="45.22386" lon="5.99911">
        <ele>1380.11</ele>
        <time>2012-12-29T07:25:45Z</time>
      </trkpt>
      <trkpt lat="45.22385" lon="5.99912">
        <ele>1380.59</ele>
        <time>2012-12-29T07:25:59Z</time>
      </trkpt>
      <trkpt lat="45.22386" lon="5.99911">
        <ele>1380.59</ele>
        <time>2012-12-29T07:26:16Z</time>
      </trkpt>
      <trkpt lat="45.22386" lon="5.99912">
        <ele>1380.59</ele>
        <time>2012-12-29T07:26:35Z</time>
      </trkpt>
      <trkpt lat="45.22385" lon="5.99913">
        <ele>1381.07</ele>
        <time>2012-12-29T07:26:47Z</time>
      </trkpt>
      <trkpt lat="45.22385" lon="5.99913">
        <ele>1381.07</ele>
        <time>2012-12-29T07:27:04Z</time>
      </trkpt>
      <trkpt lat="45.22385" lon="5.99913">
        <ele>1381.07</ele>
        <time>2012-12-29T07:27:31Z</time>
      </trkpt>
      <trkpt lat="45.22384" lon="5.99913">
        <ele>1381.55</ele>
        <time>2012-12-29T07:27:52Z</time>
      </trkpt>
      <trkpt lat="45.22384" lon="5.99913">
        <ele>1381.55</ele>
        <time>2012-12-29T07:28:18Z</time>
      </trkpt>
      <trkpt lat="45.22384" lon="5.99913">
        <ele>1381.55</ele>
        <time>2012-12-29T07:28:39Z</time>
      </trkpt>
      <trkpt lat="45.22384" lon="5.99913">
        <ele>1381.55</ele>
        <time>2012-12-29T07:29:09Z</time>
      </trkpt>
      <trkpt lat="45.22383" lon="5.99913">
        <ele>1381.55</ele>
        <time>2012-12-29T07:29:30Z</time>
      </trkpt>
      <trkpt lat="45.2238" lon="5.99905">
        <ele>1381.55</ele>
        <time>2012-12-29T07:29:37Z</time>
      </trkpt>
      <trkpt lat="45.22366" lon="5.99879">
        <ele>1379.15</ele>
        <time>2012-12-29T07:29:53Z</time>
      </trkpt>
      <trkpt lat="45.22357" lon="5.99862">
        <ele>1375.78</ele>
        <time>2012-12-29T07:30:04Z</time>
      </trkpt>
      <trkpt lat="45.22349" lon="5.99851">
        <ele>1372.42</ele>
        <time>2012-12-29T07:30:11Z</time>
      </trkpt>
      <trkpt lat="45.22347" lon="5.99848">
        <ele>1371.46</ele>
        <time>2012-12-29T07:30:13Z</time>
      </trkpt>
      <trkpt lat="45.2233" lon="5.99822">
        <ele>1369.05</ele>
        <time>2012-12-29T07:30:30Z</time>
      </trkpt>
      <trkpt lat="45.22322" lon="5.99797">
        <ele>1367.13</ele>
        <time>2012-12-29T07:30:48Z</time>
      </trkpt>
      <trkpt lat="45.22319" lon="5.99779">
        <ele>1364.25</ele>
        <time>2012-12-29T07:30:58Z</time>
      </trkpt>
      <trkpt lat="45.22317" lon="5.99771">
        <ele>1359.92</ele>
        <time>2012-12-29T07:31:02Z</time>
      </trkpt>
      <trkpt lat="45.22316" lon="5.99769">
        <ele>1359.92</ele>
        <time>2012-12-29T07:31:03Z</time>
      </trkpt>
      <trkpt lat="45.22311" lon="5.99755">
        <ele>1355.12</ele>
        <time>2012-12-29T07:31:10Z</time>
      </trkpt>
      <trkpt lat="45.22298" lon="5.99734">
        <ele>1353.67</ele>
        <time>2012-12-29T07:31:24Z</time>
      </trkpt>
      <trkpt lat="45.22295" lon="5.99731">
        <ele>1350.31</ele>
        <time>2012-12-29T07:31:27Z</time>
      </trkpt>
      <trkpt lat="45.22293" lon="5.9973">
        <ele>1347.43</ele>
        <time>2012-12-29T07:31:30Z</time>
      </trkpt>
      <trkpt lat="45.22288" lon="5.99727">
        <ele>1343.58</ele>
        <time>2012-12-29T07:31:34Z</time>
      </trkpt>
      <trkpt lat="45.22274" lon="5.99709">
        <ele>1341.66</ele>
        <time>2012-12-29T07:31:48Z</time>
      </trkpt>
      <trkpt lat="45.22271" lon="5.99706">
        <ele>1340.7</ele>
        <time>2012-12-29T07:31:52Z</time>
      </trkpt>
      <trkpt lat="45.22257" lon="5.99676">
        <ele>1337.33</ele>
        <time>2012-12-29T07:32:05Z</time>
      </trkpt>
      <trkpt lat="45.22256" lon="5.99674">
        <ele>1337.81</ele>
        <time>2012-12-29T07:32:06Z</time>
      </trkpt>
      <trkpt lat="45.22255" lon="5.99671">
        <ele>1336.85</ele>
        <time>2012-12-29T07:32:09Z</time>
      </trkpt>
      <trkpt lat="45.22252" lon="5.99664">
        <ele>1335.41</ele>
        <time>2012-12-29T07:32:16Z</time>
      </trkpt>
      <trkpt lat="45.22245" lon="5.99646">
        <ele>1333.01</ele>
        <time>2012-12-29T07:32:33Z</time>
      </trkpt>
      <trkpt lat="45.22234" lon="5.99645">
        <ele>1334.45</ele>
        <time>2012-12-29T07:32:54Z</time>
      </trkpt>
      <trkpt lat="45.22224" lon="5.99642">
        <ele>1337.33</ele>
        <time>2012-12-29T07:33:13Z</time>
      </trkpt>
      <trkpt lat="45.22216" lon="5.99638">
        <ele>1339.73</ele>
        <time>2012-12-29T07:33:31Z</time>
      </trkpt>
      <trkpt lat="45.22206" lon="5.99637">
        <ele>1343.1</ele>
        <time>2012-12-29T07:33:49Z</time>
      </trkpt>
      <trkpt lat="45.22198" lon="5.99633">
        <ele>1345.98</ele>
        <time>2012-12-29T07:34:04Z</time>
      </trkpt>
      <trkpt lat="45.22187" lon="5.99633">
        <ele>1349.35</ele>
        <time>2012-12-29T07:34:23Z</time>
      </trkpt>
      <trkpt lat="45.22178" lon="5.99636">
        <ele>1352.23</ele>
        <time>2012-12-29T07:34:43Z</time>
      </trkpt>
      <trkpt lat="45.2217" lon="5.99642">
        <ele>1355.12</ele>
        <time>2012-12-29T07:35:00Z</time>
      </trkpt>
      <trkpt lat="45.22166" lon="5.99649">
        <ele>1358.48</ele>
        <time>2012-12-29T07:35:20Z</time>
      </trkpt>
      <trkpt lat="45.22161" lon="5.99652">
        <ele>1361.36</ele>
        <time>2012-12-29T07:35:38Z</time>
      </trkpt>
      <trkpt lat="45.22154" lon="5.99656">
        <ele>1364.25</ele>
        <time>2012-12-29T07:35:55Z</time>
      </trkpt>
      <trkpt lat="45.2214" lon="5.99655">
        <ele>1367.61</ele>
        <time>2012-12-29T07:36:13Z</time>
      </trkpt>
      <trkpt lat="45.2213" lon="5.99646">
        <ele>1370.98</ele>
        <time>2012-12-29T07:36:33Z</time>
      </trkpt>
      <trkpt lat="45.22121" lon="5.9964">
        <ele>1373.38</ele>
        <time>2012-12-29T07:36:50Z</time>
      </trkpt>
      <trkpt lat="45.22109" lon="5.9964">
        <ele>1375.78</ele>
        <time>2012-12-29T07:37:07Z</time>
      </trkpt>
      <trkpt lat="45.221" lon="5.99638">
        <ele>1377.71</ele>
        <time>2012-12-29T07:37:23Z</time>
      </trkpt>
      <trkpt lat="45.22093" lon="5.9962">
        <ele>1378.67</ele>
        <time>2012-12-29T07:37:36Z</time>
      </trkpt>
      <trkpt lat="45.22087" lon="5.99601">
        <ele>1379.15</ele>
        <time>2012-12-29T07:37:51Z</time>
      </trkpt>
      <trkpt lat="45.22085" lon="5.99598">
        <ele>1379.15</ele>
        <time>2012-12-29T07:37:54Z</time>
      </trkpt>
      <trkpt lat="45.22084" lon="5.99595">
        <ele>1379.15</ele>
        <time>2012-12-29T07:37:56Z</time>
      </trkpt>
      <trkpt lat="45.22066" lon="5.99579">
        <ele>1379.63</ele>
        <time>2012-12-29T07:38:13Z</time>
      </trkpt>
      <trkpt lat="45.2205" lon="5.99573">
        <ele>1380.59</ele>
        <time>2012-12-29T07:38:29Z</time>
      </trkpt>
      <trkpt lat="45.22037" lon="5.99571">
        <ele>1382.51</ele>
        <time>2012-12-29T07:38:42Z</time>
      </trkpt>
      <trkpt lat="45.22023" lon="5.99568">
        <ele>1384.44</ele>
        <time>2012-12-29T07:38:57Z</time>
      </trkpt>
      <trkpt lat="45.22009" lon="5.99564">
        <ele>1386.84</ele>
        <time>2012-12-29T07:39:14Z</time>
      </trkpt>
      <trkpt lat="45.21995" lon="5.99558">
        <ele>1389.24</ele>
        <time>2012-12-29T07:39:30Z</time>
      </trkpt>
      <trkpt lat="45.21978" lon="5.99548">
        <ele>1391.65</ele>
        <time>2012-12-29T07:39:47Z</time>
      </trkpt>
      <trkpt lat="45.21964" lon="5.99536">
        <ele>1393.09</ele>
        <time>2012-12-29T07:40:02Z</time>
      </trkpt>
      <trkpt lat="45.21961" lon="5.99533">
        <ele>1394.05</ele>
        <time>2012-12-29T07:40:06Z</time>
      </trkpt>
      <trkpt lat="45.21956" lon="5.99521">
        <ele>1394.05</ele>
        <time>2012-12-29T07:40:19Z</time>
      </trkpt>
      <trkpt lat="45.21945" lon="5.99502">
        <ele>1393.57</ele>
        <time>2012-12-29T07:40:33Z</time>
      </trkpt>
      <trkpt lat="45.21942" lon="5.99499">
        <ele>1393.57</ele>
        <time>2012-12-29T07:40:36Z</time>
      </trkpt>
      <trkpt lat="45.21938" lon="5.99494">
        <ele>1394.05</ele>
        <time>2012-12-29T07:40:40Z</time>
      </trkpt>
      <trkpt lat="45.21924" lon="5.99481">
        <ele>1394.05</ele>
        <time>2012-12-29T07:40:54Z</time>
      </trkpt>
      <trkpt lat="45.21909" lon="5.99463">
        <ele>1392.61</ele>
        <time>2012-12-29T07:41:09Z</time>
      </trkpt>
      <trkpt lat="45.21898" lon="5.99445">
        <ele>1392.61</ele>
        <time>2012-12-29T07:41:23Z</time>
      </trkpt>
      <trkpt lat="45.21892" lon="5.9943">
        <ele>1392.61</ele>
        <time>2012-12-29T07:41:33Z</time>
      </trkpt>
      <trkpt lat="45.21888" lon="5.9941">
        <ele>1394.05</ele>
        <time>2012-12-29T07:41:49Z</time>
      </trkpt>
      <trkpt lat="45.21885" lon="5.99395">
        <ele>1396.45</ele>
        <time>2012-12-29T07:42:03Z</time>
      </trkpt>
      <trkpt lat="45.21875" lon="5.99379">
        <ele>1398.37</ele>
        <time>2012-12-29T07:42:19Z</time>
      </trkpt>
      <trkpt lat="45.21868" lon="5.99374">
        <ele>1399.34</ele>
        <time>2012-12-29T07:42:27Z</time>
      </trkpt>
      <trkpt lat="45.21862" lon="5.99353">
        <ele>1401.26</ele>
        <time>2012-12-29T07:42:42Z</time>
      </trkpt>
      <trkpt lat="45.21859" lon="5.99333">
        <ele>1403.18</ele>
        <time>2012-12-29T07:42:58Z</time>
      </trkpt>
      <trkpt lat="45.21859" lon="5.9933">
        <ele>1403.66</ele>
        <time>2012-12-29T07:43:00Z</time>
      </trkpt>
      <trkpt lat="45.21854" lon="5.99306">
        <ele>1405.1</ele>
        <time>2012-12-29T07:43:17Z</time>
      </trkpt>
      <trkpt lat="45.21853" lon="5.99305">
        <ele>1405.1</ele>
        <time>2012-12-29T07:43:18Z</time>
      </trkpt>
      <trkpt lat="45.21852" lon="5.99299">
        <ele>1405.1</ele>
        <time>2012-12-29T07:43:21Z</time>
      </trkpt>
      <trkpt lat="45.21851" lon="5.99294">
        <ele>1405.1</ele>
        <time>2012-12-29T07:43:24Z</time>
      </trkpt>
      <trkpt lat="45.21843" lon="5.99266">
        <ele>1405.1</ele>
        <time>2012-12-29T07:43:41Z</time>
      </trkpt>
      <trkpt lat="45.21841" lon="5.99264">
        <ele>1405.1</ele>
        <time>2012-12-29T07:43:43Z</time>
      </trkpt>
      <trkpt lat="45.21832" lon="5.99243">
        <ele>1405.1</ele>
        <time>2012-12-29T07:43:58Z</time>
      </trkpt>
      <trkpt lat="45.21824" lon="5.99226">
        <ele>1406.07</ele>
        <time>2012-12-29T07:44:13Z</time>
      </trkpt>
      <trkpt lat="45.21814" lon="5.99205">
        <ele>1407.51</ele>
        <time>2012-12-29T07:44:31Z</time>
      </trkpt>
      <trkpt lat="45.21807" lon="5.99181">
        <ele>1408.95</ele>
        <time>2012-12-29T07:44:48Z</time>
      </trkpt>
      <trkpt lat="45.21806" lon="5.99176">
        <ele>1408.95</ele>
        <time>2012-12-29T07:44:51Z</time>
      </trkpt>
      <trkpt lat="45.21795" lon="5.99158">
        <ele>1411.35</ele>
        <time>2012-12-29T07:45:08Z</time>
      </trkpt>
      <trkpt lat="45.21784" lon="5.99144">
        <ele>1412.31</ele>
        <time>2012-12-29T07:45:24Z</time>
      </trkpt>
      <trkpt lat="45.21767" lon="5.9913">
        <ele>1413.76</ele>
        <time>2012-12-29T07:45:40Z</time>
      </trkpt>
      <trkpt lat="45.21758" lon="5.99116">
        <ele>1415.2</ele>
        <time>2012-12-29T07:45:55Z</time>
      </trkpt>
      <trkpt lat="45.21755" lon="5.99103">
        <ele>1416.16</ele>
        <time>2012-12-29T07:46:09Z</time>
      </trkpt>
      <trkpt lat="45.21749" lon="5.99089">
        <ele>1417.12</ele>
        <time>2012-12-29T07:46:25Z</time>
      </trkpt>
      <trkpt lat="45.21753" lon="5.99076">
        <ele>1417.12</ele>
        <time>2012-12-29T07:46:39Z</time>
      </trkpt>
      <trkpt lat="45.21756" lon="5.99061">
        <ele>1418.08</ele>
        <time>2012-12-29T07:46:54Z</time>
      </trkpt>
      <trkpt lat="45.21754" lon="5.99062">
        <ele>1418.56</ele>
        <time>2012-12-29T07:47:15Z</time>
      </trkpt>
      <trkpt lat="45.21753" lon="5.99062">
        <ele>1419.04</ele>
        <time>2012-12-29T07:47:37Z</time>
      </trkpt>
      <trkpt lat="45.21752" lon="5.99062">
        <ele>1419.04</ele>
        <time>2012-12-29T07:48:00Z</time>
      </trkpt>
      <trkpt lat="45.21753" lon="5.99063">
        <ele>1419.04</ele>
        <time>2012-12-29T07:48:22Z</time>
      </trkpt>
      <trkpt lat="45.21753" lon="5.99063">
        <ele>1419.04</ele>
        <time>2012-12-29T07:48:47Z</time>
      </trkpt>
      <trkpt lat="45.21752" lon="5.99062">
        <ele>1419.04</ele>
        <time>2012-12-29T07:48:59Z</time>
      </trkpt>
      <trkpt lat="45.21751" lon="5.99062">
        <ele>1419.04</ele>
        <time>2012-12-29T07:49:01Z</time>
      </trkpt>
      <trkpt lat="45.21752" lon="5.9906">
        <ele>1419.52</ele>
        <time>2012-12-29T07:49:14Z</time>
      </trkpt>
      <trkpt lat="45.21752" lon="5.99059">
        <ele>1419.52</ele>
        <time>2012-12-29T07:49:30Z</time>
      </trkpt>
      <trkpt lat="45.21751" lon="5.99059">
        <ele>1419.52</ele>
        <time>2012-12-29T07:49:51Z</time>
      </trkpt>
      <trkpt lat="45.21751" lon="5.9906">
        <ele>1419.52</ele>
        <time>2012-12-29T07:50:14Z</time>
      </trkpt>
      <trkpt lat="45.21751" lon="5.99059">
        <ele>1419.52</ele>
        <time>2012-12-29T07:50:33Z</time>
      </trkpt>
      <trkpt lat="45.21748" lon="5.99053">
        <ele>1419.52</ele>
        <time>2012-12-29T07:50:47Z</time>
      </trkpt>
      <trkpt lat="45.21743" lon="5.99043">
        <ele>1420.49</ele>
        <time>2012-12-29T07:51:01Z</time>
      </trkpt>
      <trkpt lat="45.21735" lon="5.99035">
        <ele>1421.93</ele>
        <time>2012-12-29T07:51:14Z</time>
      </trkpt>
      <trkpt lat="45.2173" lon="5.99025">
        <ele>1424.33</ele>
        <time>2012-12-29T07:51:29Z</time>
      </trkpt>
      <trkpt lat="45.21723" lon="5.99013">
        <ele>1425.77</ele>
        <time>2012-12-29T07:51:44Z</time>
      </trkpt>
      <trkpt lat="45.21716" lon="5.98999">
        <ele>1428.18</ele>
        <time>2012-12-29T07:52:01Z</time>
      </trkpt>
      <trkpt lat="45.21709" lon="5.9899">
        <ele>1430.58</ele>
        <time>2012-12-29T07:52:17Z</time>
      </trkpt>
      <trkpt lat="45.21703" lon="5.9898">
        <ele>1432.02</ele>
        <time>2012-12-29T07:52:31Z</time>
      </trkpt>
      <trkpt lat="45.21694" lon="5.98968">
        <ele>1433.46</ele>
        <time>2012-12-29T07:52:45Z</time>
      </trkpt>
      <trkpt lat="45.21685" lon="5.98953">
        <ele>1435.87</ele>
        <time>2012-12-29T07:53:01Z</time>
      </trkpt>
      <trkpt lat="45.21676" lon="5.98943">
        <ele>1437.31</ele>
        <time>2012-12-29T07:53:16Z</time>
      </trkpt>
      <trkpt lat="45.21669" lon="5.98935">
        <ele>1439.23</ele>
        <time>2012-12-29T07:53:33Z</time>
      </trkpt>
      <trkpt lat="45.21658" lon="5.98929">
        <ele>1441.15</ele>
        <time>2012-12-29T07:53:51Z</time>
      </trkpt>
      <trkpt lat="45.21646" lon="5.9892">
        <ele>1443.56</ele>
        <time>2012-12-29T07:54:08Z</time>
      </trkpt>
      <trkpt lat="45.21641" lon="5.98915">
        <ele>1445</ele>
        <time>2012-12-29T07:54:21Z</time>
      </trkpt>
      <trkpt lat="45.21634" lon="5.98905">
        <ele>1446.92</ele>
        <time>2012-12-29T07:54:37Z</time>
      </trkpt>
      <trkpt lat="45.21633" lon="5.98904">
        <ele>1447.88</ele>
        <time>2012-12-29T07:54:38Z</time>
      </trkpt>
      <trkpt lat="45.21631" lon="5.98887">
        <ele>1449.81</ele>
        <time>2012-12-29T07:54:54Z</time>
      </trkpt>
      <trkpt lat="45.21624" lon="5.9888">
        <ele>1451.73</ele>
        <time>2012-12-29T07:55:08Z</time>
      </trkpt>
      <trkpt lat="45.21616" lon="5.98874">
        <ele>1453.65</ele>
        <time>2012-12-29T07:55:23Z</time>
      </trkpt>
      <trkpt lat="45.21613" lon="5.98861">
        <ele>1456.05</ele>
        <time>2012-12-29T07:55:37Z</time>
      </trkpt>
      <trkpt lat="45.21609" lon="5.98849">
        <ele>1457.98</ele>
        <time>2012-12-29T07:55:53Z</time>
      </trkpt>
      <trkpt lat="45.21603" lon="5.98839">
        <ele>1459.9</ele>
        <time>2012-12-29T07:56:07Z</time>
      </trkpt>
      <trkpt lat="45.21599" lon="5.98825">
        <ele>1462.3</ele>
        <time>2012-12-29T07:56:21Z</time>
      </trkpt>
      <trkpt lat="45.21595" lon="5.98812">
        <ele>1464.71</ele>
        <time>2012-12-29T07:56:37Z</time>
      </trkpt>
      <trkpt lat="45.21589" lon="5.988">
        <ele>1467.11</ele>
        <time>2012-12-29T07:56:54Z</time>
      </trkpt>
      <trkpt lat="45.21586" lon="5.98791">
        <ele>1469.51</ele>
        <time>2012-12-29T07:57:08Z</time>
      </trkpt>
      <trkpt lat="45.21585" lon="5.98778">
        <ele>1472.88</ele>
        <time>2012-12-29T07:57:27Z</time>
      </trkpt>
      <trkpt lat="45.2158" lon="5.98767">
        <ele>1475.76</ele>
        <time>2012-12-29T07:57:43Z</time>
      </trkpt>
      <trkpt lat="45.21573" lon="5.98762">
        <ele>1477.68</ele>
        <time>2012-12-29T07:58:03Z</time>
      </trkpt>
      <trkpt lat="45.21572" lon="5.98751">
        <ele>1479.61</ele>
        <time>2012-12-29T07:58:18Z</time>
      </trkpt>
      <trkpt lat="45.21567" lon="5.98735">
        <ele>1482.49</ele>
        <time>2012-12-29T07:58:35Z</time>
      </trkpt>
      <trkpt lat="45.21564" lon="5.98728">
        <ele>1485.37</ele>
        <time>2012-12-29T07:58:50Z</time>
      </trkpt>
      <trkpt lat="45.21559" lon="5.9872">
        <ele>1487.3</ele>
        <time>2012-12-29T07:59:03Z</time>
      </trkpt>
      <trkpt lat="45.21552" lon="5.98722">
        <ele>1488.74</ele>
        <time>2012-12-29T07:59:16Z</time>
      </trkpt>
      <trkpt lat="45.21545" lon="5.98714">
        <ele>1491.62</ele>
        <time>2012-12-29T07:59:34Z</time>
      </trkpt>
      <trkpt lat="45.2154" lon="5.98707">
        <ele>1494.03</ele>
        <time>2012-12-29T07:59:49Z</time>
      </trkpt>
      <trkpt lat="45.21535" lon="5.98703">
        <ele>1496.91</ele>
        <time>2012-12-29T08:00:06Z</time>
      </trkpt>
      <trkpt lat="45.21531" lon="5.98705">
        <ele>1498.35</ele>
        <time>2012-12-29T08:00:20Z</time>
      </trkpt>
      <trkpt lat="45.21527" lon="5.98699">
        <ele>1499.79</ele>
        <time>2012-12-29T08:00:33Z</time>
      </trkpt>
      <trkpt lat="45.2152" lon="5.98695">
        <ele>1502.2</ele>
        <time>2012-12-29T08:00:48Z</time>
      </trkpt>
      <trkpt lat="45.21516" lon="5.98683">
        <ele>1504.12</ele>
        <time>2012-12-29T08:01:05Z</time>
      </trkpt>
      <trkpt lat="45.21521" lon="5.98672">
        <ele>1507</ele>
        <time>2012-12-29T08:01:23Z</time>
      </trkpt>
      <trkpt lat="45.21514" lon="5.98672">
        <ele>1509.41</ele>
        <time>2012-12-29T08:01:39Z</time>
      </trkpt>
      <trkpt lat="45.2151" lon="5.98667">
        <ele>1511.81</ele>
        <time>2012-12-29T08:01:54Z</time>
      </trkpt>
      <trkpt lat="45.21512" lon="5.98659">
        <ele>1513.73</ele>
        <time>2012-12-29T08:02:11Z</time>
      </trkpt>
      <trkpt lat="45.21505" lon="5.98658">
        <ele>1515.66</ele>
        <time>2012-12-29T08:02:27Z</time>
      </trkpt>
      <trkpt lat="45.215" lon="5.98657">
        <ele>1518.06</ele>
        <time>2012-12-29T08:02:44Z</time>
      </trkpt>
      <trkpt lat="45.21501" lon="5.98637">
        <ele>1520.94</ele>
        <time>2012-12-29T08:03:03Z</time>
      </trkpt>
      <trkpt lat="45.21499" lon="5.98632">
        <ele>1522.87</ele>
        <time>2012-12-29T08:03:17Z</time>
      </trkpt>
      <trkpt lat="45.21489" lon="5.98637">
        <ele>1525.75</ele>
        <time>2012-12-29T08:03:34Z</time>
      </trkpt>
      <trkpt lat="45.21487" lon="5.98628">
        <ele>1528.63</ele>
        <time>2012-12-29T08:03:52Z</time>
      </trkpt>
      <trkpt lat="45.21484" lon="5.98618">
        <ele>1530.56</ele>
        <time>2012-12-29T08:04:09Z</time>
      </trkpt>
      <trkpt lat="45.21488" lon="5.98607">
        <ele>1532.96</ele>
        <time>2012-12-29T08:04:28Z</time>
      </trkpt>
      <trkpt lat="45.21483" lon="5.98606">
        <ele>1535.84</ele>
        <time>2012-12-29T08:04:44Z</time>
      </trkpt>
      <trkpt lat="45.21482" lon="5.98602">
        <ele>1538.25</ele>
        <time>2012-12-29T08:05:00Z</time>
      </trkpt>
      <trkpt lat="45.21481" lon="5.98588">
        <ele>1540.65</ele>
        <time>2012-12-29T08:05:18Z</time>
      </trkpt>
      <trkpt lat="45.2148" lon="5.98578">
        <ele>1543.53</ele>
        <time>2012-12-29T08:05:36Z</time>
      </trkpt>
      <trkpt lat="45.21473" lon="5.98584">
        <ele>1545.94</ele>
        <time>2012-12-29T08:05:54Z</time>
      </trkpt>
      <trkpt lat="45.21474" lon="5.98576">
        <ele>1546.9</ele>
        <time>2012-12-29T08:06:07Z</time>
      </trkpt>
      <trkpt lat="45.21478" lon="5.98565">
        <ele>1548.34</ele>
        <time>2012-12-29T08:06:24Z</time>
      </trkpt>
      <trkpt lat="45.21472" lon="5.98565">
        <ele>1550.26</ele>
        <time>2012-12-29T08:06:36Z</time>
      </trkpt>
      <trkpt lat="45.21464" lon="5.9857">
        <ele>1552.19</ele>
        <time>2012-12-29T08:06:53Z</time>
      </trkpt>
      <trkpt lat="45.21464" lon="5.98565">
        <ele>1554.11</ele>
        <time>2012-12-29T08:07:09Z</time>
      </trkpt>
      <trkpt lat="45.21465" lon="5.98552">
        <ele>1556.03</ele>
        <time>2012-12-29T08:07:26Z</time>
      </trkpt>
      <trkpt lat="45.21465" lon="5.98548">
        <ele>1556.99</ele>
        <time>2012-12-29T08:07:42Z</time>
      </trkpt>
      <trkpt lat="45.21458" lon="5.98547">
        <ele>1559.4</ele>
        <time>2012-12-29T08:07:58Z</time>
      </trkpt>
      <trkpt lat="45.21462" lon="5.98536">
        <ele>1561.8</ele>
        <time>2012-12-29T08:08:13Z</time>
      </trkpt>
      <trkpt lat="45.21458" lon="5.98537">
        <ele>1563.24</ele>
        <time>2012-12-29T08:08:28Z</time>
      </trkpt>
      <trkpt lat="45.21449" lon="5.98543">
        <ele>1565.16</ele>
        <time>2012-12-29T08:08:44Z</time>
      </trkpt>
      <trkpt lat="45.21443" lon="5.9855">
        <ele>1568.05</ele>
        <time>2012-12-29T08:09:03Z</time>
      </trkpt>
      <trkpt lat="45.21442" lon="5.98537">
        <ele>1569.49</ele>
        <time>2012-12-29T08:09:16Z</time>
      </trkpt>
      <trkpt lat="45.21441" lon="5.98523">
        <ele>1571.89</ele>
        <time>2012-12-29T08:09:33Z</time>
      </trkpt>
      <trkpt lat="45.21442" lon="5.98521">
        <ele>1573.82</ele>
        <time>2012-12-29T08:09:48Z</time>
      </trkpt>
      <trkpt lat="45.21431" lon="5.98531">
        <ele>1576.22</ele>
        <time>2012-12-29T08:10:07Z</time>
      </trkpt>
      <trkpt lat="45.21428" lon="5.98531">
        <ele>1578.14</ele>
        <time>2012-12-29T08:10:23Z</time>
      </trkpt>
      <trkpt lat="45.21427" lon="5.98514">
        <ele>1580.54</ele>
        <time>2012-12-29T08:10:39Z</time>
      </trkpt>
      <trkpt lat="45.21432" lon="5.98502">
        <ele>1582.47</ele>
        <time>2012-12-29T08:10:53Z</time>
      </trkpt>
      <trkpt lat="45.21435" lon="5.98487">
        <ele>1584.87</ele>
        <time>2012-12-29T08:11:11Z</time>
      </trkpt>
      <trkpt lat="45.21437" lon="5.98478">
        <ele>1586.79</ele>
        <time>2012-12-29T08:11:27Z</time>
      </trkpt>
      <trkpt lat="45.21437" lon="5.98466">
        <ele>1589.68</ele>
        <time>2012-12-29T08:11:48Z</time>
      </trkpt>
      <trkpt lat="45.21432" lon="5.98472">
        <ele>1592.56</ele>
        <time>2012-12-29T08:12:05Z</time>
      </trkpt>
      <trkpt lat="45.21433" lon="5.98471">
        <ele>1593.04</ele>
        <time>2012-12-29T08:12:30Z</time>
      </trkpt>
      <trkpt lat="45.21432" lon="5.98462">
        <ele>1594.96</ele>
        <time>2012-12-29T08:12:48Z</time>
      </trkpt>
      <trkpt lat="45.21422" lon="5.98466">
        <ele>1597.85</ele>
        <time>2012-12-29T08:13:05Z</time>
      </trkpt>
      <trkpt lat="45.21416" lon="5.98467">
        <ele>1599.77</ele>
        <time>2012-12-29T08:13:19Z</time>
      </trkpt>
      <trkpt lat="45.21409" lon="5.98473">
        <ele>1602.17</ele>
        <time>2012-12-29T08:13:34Z</time>
      </trkpt>
      <trkpt lat="45.21409" lon="5.98467">
        <ele>1604.58</ele>
        <time>2012-12-29T08:13:49Z</time>
      </trkpt>
      <trkpt lat="45.2141" lon="5.98451">
        <ele>1606.5</ele>
        <time>2012-12-29T08:14:06Z</time>
      </trkpt>
      <trkpt lat="45.21407" lon="5.98451">
        <ele>1608.9</ele>
        <time>2012-12-29T08:14:22Z</time>
      </trkpt>
      <trkpt lat="45.21399" lon="5.98462">
        <ele>1610.35</ele>
        <time>2012-12-29T08:14:38Z</time>
      </trkpt>
      <trkpt lat="45.21401" lon="5.98445">
        <ele>1612.75</ele>
        <time>2012-12-29T08:14:55Z</time>
      </trkpt>
      <trkpt lat="45.21405" lon="5.98427">
        <ele>1614.67</ele>
        <time>2012-12-29T08:15:13Z</time>
      </trkpt>
      <trkpt lat="45.21403" lon="5.98425">
        <ele>1617.07</ele>
        <time>2012-12-29T08:15:27Z</time>
      </trkpt>
      <trkpt lat="45.21391" lon="5.98433">
        <ele>1619</ele>
        <time>2012-12-29T08:15:46Z</time>
      </trkpt>
      <trkpt lat="45.21389" lon="5.98433">
        <ele>1621.4</ele>
        <time>2012-12-29T08:16:00Z</time>
      </trkpt>
      <trkpt lat="45.2139" lon="5.98426">
        <ele>1622.84</ele>
        <time>2012-12-29T08:16:17Z</time>
      </trkpt>
      <trkpt lat="45.21395" lon="5.9841">
        <ele>1624.28</ele>
        <time>2012-12-29T08:16:33Z</time>
      </trkpt>
      <trkpt lat="45.21394" lon="5.98405">
        <ele>1625.73</ele>
        <time>2012-12-29T08:16:49Z</time>
      </trkpt>
      <trkpt lat="45.21394" lon="5.98406">
        <ele>1627.17</ele>
        <time>2012-12-29T08:17:18Z</time>
      </trkpt>
      <trkpt lat="45.21393" lon="5.984">
        <ele>1628.61</ele>
        <time>2012-12-29T08:17:33Z</time>
      </trkpt>
      <trkpt lat="45.21386" lon="5.98404">
        <ele>1631.01</ele>
        <time>2012-12-29T08:17:49Z</time>
      </trkpt>
      <trkpt lat="45.21377" lon="5.98408">
        <ele>1633.9</ele>
        <time>2012-12-29T08:18:07Z</time>
      </trkpt>
      <trkpt lat="45.21368" lon="5.98412">
        <ele>1636.78</ele>
        <time>2012-12-29T08:18:25Z</time>
      </trkpt>
      <trkpt lat="45.2136" lon="5.98419">
        <ele>1639.19</ele>
        <time>2012-12-29T08:18:42Z</time>
      </trkpt>
      <trkpt lat="45.21355" lon="5.98423">
        <ele>1641.59</ele>
        <time>2012-12-29T08:18:56Z</time>
      </trkpt>
      <trkpt lat="45.21356" lon="5.98414">
        <ele>1643.51</ele>
        <time>2012-12-29T08:19:12Z</time>
      </trkpt>
      <trkpt lat="45.21353" lon="5.98406">
        <ele>1645.91</ele>
        <time>2012-12-29T08:19:27Z</time>
      </trkpt>
      <trkpt lat="45.21352" lon="5.98406">
        <ele>1646.88</ele>
        <time>2012-12-29T08:19:56Z</time>
      </trkpt>
      <trkpt lat="45.21354" lon="5.98393">
        <ele>1648.8</ele>
        <time>2012-12-29T08:20:12Z</time>
      </trkpt>
      <trkpt lat="45.21353" lon="5.9839">
        <ele>1650.24</ele>
        <time>2012-12-29T08:20:31Z</time>
      </trkpt>
      <trkpt lat="45.21346" lon="5.98398">
        <ele>1652.16</ele>
        <time>2012-12-29T08:20:48Z</time>
      </trkpt>
      <trkpt lat="45.21341" lon="5.98406">
        <ele>1653.6</ele>
        <time>2012-12-29T08:21:10Z</time>
      </trkpt>
      <trkpt lat="45.21338" lon="5.98405">
        <ele>1655.05</ele>
        <time>2012-12-29T08:21:31Z</time>
      </trkpt>
      <trkpt lat="45.21339" lon="5.98402">
        <ele>1656.01</ele>
        <time>2012-12-29T08:21:53Z</time>
      </trkpt>
      <trkpt lat="45.2134" lon="5.984">
        <ele>1656.97</ele>
        <time>2012-12-29T08:22:09Z</time>
      </trkpt>
      <trkpt lat="45.2134" lon="5.98383">
        <ele>1658.41</ele>
        <time>2012-12-29T08:22:25Z</time>
      </trkpt>
      <trkpt lat="45.21343" lon="5.9837">
        <ele>1660.81</ele>
        <time>2012-12-29T08:22:43Z</time>
      </trkpt>
      <trkpt lat="45.21344" lon="5.98366">
        <ele>1662.74</ele>
        <time>2012-12-29T08:23:03Z</time>
      </trkpt>
      <trkpt lat="45.21344" lon="5.98366">
        <ele>1662.74</ele>
        <time>2012-12-29T08:23:34Z</time>
      </trkpt>
      <trkpt lat="45.21338" lon="5.9837">
        <ele>1663.7</ele>
        <time>2012-12-29T08:23:53Z</time>
      </trkpt>
      <trkpt lat="45.21334" lon="5.98374">
        <ele>1665.62</ele>
        <time>2012-12-29T08:24:12Z</time>
      </trkpt>
      <trkpt lat="45.21326" lon="5.9838">
        <ele>1668.02</ele>
        <time>2012-12-29T08:24:32Z</time>
      </trkpt>
      <trkpt lat="45.21326" lon="5.98376">
        <ele>1669.95</ele>
        <time>2012-12-29T08:24:55Z</time>
      </trkpt>
      <trkpt lat="45.21324" lon="5.98378">
        <ele>1670.43</ele>
        <time>2012-12-29T08:25:09Z</time>
      </trkpt>
      <trkpt lat="45.21324" lon="5.98366">
        <ele>1671.87</ele>
        <time>2012-12-29T08:25:25Z</time>
      </trkpt>
      <trkpt lat="45.21325" lon="5.98355">
        <ele>1674.75</ele>
        <time>2012-12-29T08:25:43Z</time>
      </trkpt>
      <trkpt lat="45.21325" lon="5.98347">
        <ele>1676.68</ele>
        <time>2012-12-29T08:26:00Z</time>
      </trkpt>
      <trkpt lat="45.21325" lon="5.98345">
        <ele>1677.64</ele>
        <time>2012-12-29T08:26:17Z</time>
      </trkpt>
      <trkpt lat="45.2132" lon="5.98349">
        <ele>1679.08</ele>
        <time>2012-12-29T08:26:36Z</time>
      </trkpt>
      <trkpt lat="45.21311" lon="5.98361">
        <ele>1680.52</ele>
        <time>2012-12-29T08:26:53Z</time>
      </trkpt>
      <trkpt lat="45.21308" lon="5.98366">
        <ele>1682.93</ele>
        <time>2012-12-29T08:27:13Z</time>
      </trkpt>
      <trkpt lat="45.21304" lon="5.98371">
        <ele>1683.89</ele>
        <time>2012-12-29T08:27:26Z</time>
      </trkpt>
      <trkpt lat="45.21305" lon="5.98365">
        <ele>1685.81</ele>
        <time>2012-12-29T08:27:39Z</time>
      </trkpt>
      <trkpt lat="45.21308" lon="5.98351">
        <ele>1687.73</ele>
        <time>2012-12-29T08:27:55Z</time>
      </trkpt>
      <trkpt lat="45.21305" lon="5.98342">
        <ele>1689.65</ele>
        <time>2012-12-29T08:28:13Z</time>
      </trkpt>
      <trkpt lat="45.21305" lon="5.98342">
        <ele>1691.58</ele>
        <time>2012-12-29T08:28:33Z</time>
      </trkpt>
      <trkpt lat="45.21296" lon="5.98353">
        <ele>1694.46</ele>
        <time>2012-12-29T08:28:50Z</time>
      </trkpt>
      <trkpt lat="45.21291" lon="5.9836">
        <ele>1696.38</ele>
        <time>2012-12-29T08:29:05Z</time>
      </trkpt>
      <trkpt lat="45.21288" lon="5.98364">
        <ele>1698.31</ele>
        <time>2012-12-29T08:29:22Z</time>
      </trkpt>
      <trkpt lat="45.21282" lon="5.98371">
        <ele>1700.23</ele>
        <time>2012-12-29T08:29:37Z</time>
      </trkpt>
      <trkpt lat="45.21277" lon="5.98375">
        <ele>1702.63</ele>
        <time>2012-12-29T08:29:51Z</time>
      </trkpt>
      <trkpt lat="45.21271" lon="5.9838">
        <ele>1704.55</ele>
        <time>2012-12-29T08:30:07Z</time>
      </trkpt>
      <trkpt lat="45.21269" lon="5.98383">
        <ele>1707.44</ele>
        <time>2012-12-29T08:30:25Z</time>
      </trkpt>
      <trkpt lat="45.21267" lon="5.98388">
        <ele>1709.36</ele>
        <time>2012-12-29T08:30:40Z</time>
      </trkpt>
      <trkpt lat="45.21262" lon="5.98393">
        <ele>1711.28</ele>
        <time>2012-12-29T08:30:56Z</time>
      </trkpt>
      <trkpt lat="45.21254" lon="5.98405">
        <ele>1713.21</ele>
        <time>2012-12-29T08:31:15Z</time>
      </trkpt>
      <trkpt lat="45.21249" lon="5.98415">
        <ele>1716.09</ele>
        <time>2012-12-29T08:31:32Z</time>
      </trkpt>
      <trkpt lat="45.21247" lon="5.9842">
        <ele>1718.49</ele>
        <time>2012-12-29T08:31:48Z</time>
      </trkpt>
      <trkpt lat="45.21241" lon="5.98431">
        <ele>1721.38</ele>
        <time>2012-12-29T08:32:05Z</time>
      </trkpt>
      <trkpt lat="45.21237" lon="5.98439">
        <ele>1723.3</ele>
        <time>2012-12-29T08:32:22Z</time>
      </trkpt>
      <trkpt lat="45.21235" lon="5.9844">
        <ele>1724.26</ele>
        <time>2012-12-29T08:32:52Z</time>
      </trkpt>
      <trkpt lat="45.21236" lon="5.9844">
        <ele>1724.26</ele>
        <time>2012-12-29T08:33:22Z</time>
      </trkpt>
      <trkpt lat="45.21235" lon="5.9844">
        <ele>1725.22</ele>
        <time>2012-12-29T08:33:49Z</time>
      </trkpt>
      <trkpt lat="45.21235" lon="5.9844">
        <ele>1724.74</ele>
        <time>2012-12-29T08:34:19Z</time>
      </trkpt>
      <trkpt lat="45.21235" lon="5.9844">
        <ele>1724.74</ele>
        <time>2012-12-29T08:34:50Z</time>
      </trkpt>
      <trkpt lat="45.21235" lon="5.9844">
        <ele>1724.74</ele>
        <time>2012-12-29T08:35:19Z</time>
      </trkpt>
      <trkpt lat="45.21234" lon="5.9844">
        <ele>1724.74</ele>
        <time>2012-12-29T08:35:52Z</time>
      </trkpt>
      <trkpt lat="45.21235" lon="5.9844">
        <ele>1724.74</ele>
        <time>2012-12-29T08:36:20Z</time>
      </trkpt>
      <trkpt lat="45.21235" lon="5.9844">
        <ele>1724.74</ele>
        <time>2012-12-29T08:36:37Z</time>
      </trkpt>
      <trkpt lat="45.21235" lon="5.9844">
        <ele>1724.74</ele>
        <time>2012-12-29T08:36:56Z</time>
      </trkpt>
      <trkpt lat="45.21235" lon="5.9844">
        <ele>1724.74</ele>
        <time>2012-12-29T08:37:02Z</time>
      </trkpt>
      <trkpt lat="45.21238" lon="5.98438">
        <ele>1723.78</ele>
        <time>2012-12-29T08:37:16Z</time>
      </trkpt>
      <trkpt lat="45.21238" lon="5.98437">
        <ele>1723.78</ele>
        <time>2012-12-29T08:37:34Z</time>
      </trkpt>
      <trkpt lat="45.21236" lon="5.98438">
        <ele>1723.78</ele>
        <time>2012-12-29T08:37:55Z</time>
      </trkpt>
      <trkpt lat="45.21235" lon="5.98438">
        <ele>1723.78</ele>
        <time>2012-12-29T08:38:21Z</time>
      </trkpt>
      <trkpt lat="45.21235" lon="5.98439">
        <ele>1723.78</ele>
        <time>2012-12-29T08:38:48Z</time>
      </trkpt>
      <trkpt lat="45.21235" lon="5.98439">
        <ele>1723.78</ele>
        <time>2012-12-29T08:39:21Z</time>
      </trkpt>
      <trkpt lat="45.21235" lon="5.98439">
        <ele>1723.78</ele>
        <time>2012-12-29T08:39:50Z</time>
      </trkpt>
      <trkpt lat="45.21236" lon="5.98439">
        <ele>1723.78</ele>
        <time>2012-12-29T08:40:14Z</time>
      </trkpt>
      <trkpt lat="45.21236" lon="5.98439">
        <ele>1723.78</ele>
        <time>2012-12-29T08:40:39Z</time>
      </trkpt>
      <trkpt lat="45.21235" lon="5.98439">
        <ele>1723.78</ele>
        <time>2012-12-29T08:40:56Z</time>
      </trkpt>
      <trkpt lat="45.21235" lon="5.98439">
        <ele>1725.22</ele>
        <time>2012-12-29T08:41:05Z</time>
      </trkpt>
      <trkpt lat="45.21231" lon="5.98444">
        <ele>1725.22</ele>
        <time>2012-12-29T08:41:19Z</time>
      </trkpt>
      <trkpt lat="45.21231" lon="5.98438">
        <ele>1726.67</ele>
        <time>2012-12-29T08:41:33Z</time>
      </trkpt>
      <trkpt lat="45.21225" lon="5.98446">
        <ele>1728.59</ele>
        <time>2012-12-29T08:41:50Z</time>
      </trkpt>
      <trkpt lat="45.21216" lon="5.98453">
        <ele>1731.47</ele>
        <time>2012-12-29T08:42:07Z</time>
      </trkpt>
      <trkpt lat="45.21214" lon="5.98457">
        <ele>1733.39</ele>
        <time>2012-12-29T08:42:25Z</time>
      </trkpt>
      <trkpt lat="45.21212" lon="5.98457">
        <ele>1734.84</ele>
        <time>2012-12-29T08:42:41Z</time>
      </trkpt>
      <trkpt lat="45.21215" lon="5.98448">
        <ele>1737.24</ele>
        <time>2012-12-29T08:43:01Z</time>
      </trkpt>
      <trkpt lat="45.21208" lon="5.98452">
        <ele>1738.2</ele>
        <time>2012-12-29T08:43:15Z</time>
      </trkpt>
      <trkpt lat="45.21207" lon="5.98455">
        <ele>1739.16</ele>
        <time>2012-12-29T08:43:45Z</time>
      </trkpt>
      <trkpt lat="45.21206" lon="5.98456">
        <ele>1740.12</ele>
        <time>2012-12-29T08:44:09Z</time>
      </trkpt>
      <trkpt lat="45.21205" lon="5.98457">
        <ele>1740.12</ele>
        <time>2012-12-29T08:44:32Z</time>
      </trkpt>
      <trkpt lat="45.21209" lon="5.98468">
        <ele>1741.08</ele>
        <time>2012-12-29T08:44:49Z</time>
      </trkpt>
      <trkpt lat="45.21213" lon="5.98476">
        <ele>1741.57</ele>
        <time>2012-12-29T08:45:07Z</time>
      </trkpt>
      <trkpt lat="45.21213" lon="5.98477">
        <ele>1742.05</ele>
        <time>2012-12-29T08:45:26Z</time>
      </trkpt>
      <trkpt lat="45.21214" lon="5.9848">
        <ele>1742.05</ele>
        <time>2012-12-29T08:45:47Z</time>
      </trkpt>
      <trkpt lat="45.21215" lon="5.98482">
        <ele>1743.01</ele>
        <time>2012-12-29T08:46:07Z</time>
      </trkpt>
      <trkpt lat="45.21216" lon="5.98487">
        <ele>1743.97</ele>
        <time>2012-12-29T08:46:23Z</time>
      </trkpt>
      <trkpt lat="45.21217" lon="5.98496">
        <ele>1744.93</ele>
        <time>2012-12-29T08:46:40Z</time>
      </trkpt>
      <trkpt lat="45.21221" lon="5.9851">
        <ele>1747.33</ele>
        <time>2012-12-29T08:46:55Z</time>
      </trkpt>
      <trkpt lat="45.21223" lon="5.98523">
        <ele>1749.74</ele>
        <time>2012-12-29T08:47:11Z</time>
      </trkpt>
      <trkpt lat="45.21222" lon="5.98537">
        <ele>1752.62</ele>
        <time>2012-12-29T08:47:28Z</time>
      </trkpt>
      <trkpt lat="45.21221" lon="5.98555">
        <ele>1755.5</ele>
        <time>2012-12-29T08:47:47Z</time>
      </trkpt>
      <trkpt lat="45.21221" lon="5.98561">
        <ele>1756.95</ele>
        <time>2012-12-29T08:48:06Z</time>
      </trkpt>
      <trkpt lat="45.21219" lon="5.98566">
        <ele>1759.35</ele>
        <time>2012-12-29T08:48:24Z</time>
      </trkpt>
      <trkpt lat="45.21214" lon="5.98577">
        <ele>1761.75</ele>
        <time>2012-12-29T08:48:40Z</time>
      </trkpt>
      <trkpt lat="45.21206" lon="5.98592">
        <ele>1764.64</ele>
        <time>2012-12-29T08:48:58Z</time>
      </trkpt>
      <trkpt lat="45.21202" lon="5.98601">
        <ele>1766.56</ele>
        <time>2012-12-29T08:49:17Z</time>
      </trkpt>
      <trkpt lat="45.21204" lon="5.98604">
        <ele>1767.04</ele>
        <time>2012-12-29T08:49:47Z</time>
      </trkpt>
      <trkpt lat="45.21205" lon="5.98604">
        <ele>1767.04</ele>
        <time>2012-12-29T08:50:07Z</time>
      </trkpt>
      <trkpt lat="45.21205" lon="5.98605">
        <ele>1767.04</ele>
        <time>2012-12-29T08:50:37Z</time>
      </trkpt>
      <trkpt lat="45.21205" lon="5.98605">
        <ele>1767.04</ele>
        <time>2012-12-29T08:51:11Z</time>
      </trkpt>
      <trkpt lat="45.21205" lon="5.98605">
        <ele>1767.04</ele>
        <time>2012-12-29T08:51:39Z</time>
      </trkpt>
      <trkpt lat="45.21205" lon="5.98605">
        <ele>1767.04</ele>
        <time>2012-12-29T08:51:58Z</time>
      </trkpt>
      <trkpt lat="45.21199" lon="5.98603">
        <ele>1768.96</ele>
        <time>2012-12-29T08:52:17Z</time>
      </trkpt>
      <trkpt lat="45.21185" lon="5.98608">
        <ele>1770.89</ele>
        <time>2012-12-29T08:52:34Z</time>
      </trkpt>
      <trkpt lat="45.21172" lon="5.98621">
        <ele>1773.77</ele>
        <time>2012-12-29T08:52:52Z</time>
      </trkpt>
      <trkpt lat="45.21166" lon="5.98626">
        <ele>1776.17</ele>
        <time>2012-12-29T08:53:12Z</time>
      </trkpt>
      <trkpt lat="45.21168" lon="5.98622">
        <ele>1778.1</ele>
        <time>2012-12-29T08:53:30Z</time>
      </trkpt>
      <trkpt lat="45.21167" lon="5.9862">
        <ele>1779.06</ele>
        <time>2012-12-29T08:53:55Z</time>
      </trkpt>
      <trkpt lat="45.21167" lon="5.98618">
        <ele>1779.06</ele>
        <time>2012-12-29T08:54:31Z</time>
      </trkpt>
      <trkpt lat="45.21166" lon="5.98617">
        <ele>1779.54</ele>
        <time>2012-12-29T08:54:58Z</time>
      </trkpt>
      <trkpt lat="45.21164" lon="5.98618">
        <ele>1782.9</ele>
        <time>2012-12-29T08:55:18Z</time>
      </trkpt>
      <trkpt lat="45.21164" lon="5.9862">
        <ele>1786.27</ele>
        <time>2012-12-29T08:55:35Z</time>
      </trkpt>
      <trkpt lat="45.21162" lon="5.98624">
        <ele>1789.15</ele>
        <time>2012-12-29T08:55:53Z</time>
      </trkpt>
      <trkpt lat="45.2116" lon="5.98626">
        <ele>1791.07</ele>
        <time>2012-12-29T08:56:12Z</time>
      </trkpt>
      <trkpt lat="45.21156" lon="5.98627">
        <ele>1793.96</ele>
        <time>2012-12-29T08:56:31Z</time>
      </trkpt>
      <trkpt lat="45.21156" lon="5.98632">
        <ele>1797.32</ele>
        <time>2012-12-29T08:56:52Z</time>
      </trkpt>
      <trkpt lat="45.21155" lon="5.98636">
        <ele>1799.73</ele>
        <time>2012-12-29T08:57:09Z</time>
      </trkpt>
      <trkpt lat="45.2115" lon="5.98636">
        <ele>1802.13</ele>
        <time>2012-12-29T08:57:27Z</time>
      </trkpt>
      <trkpt lat="45.21134" lon="5.98624">
        <ele>1805.49</ele>
        <time>2012-12-29T08:57:48Z</time>
      </trkpt>
      <trkpt lat="45.21129" lon="5.98608">
        <ele>1807.9</ele>
        <time>2012-12-29T08:58:05Z</time>
      </trkpt>
      <trkpt lat="45.21126" lon="5.98604">
        <ele>1809.82</ele>
        <time>2012-12-29T08:58:24Z</time>
      </trkpt>
      <trkpt lat="45.21121" lon="5.98607">
        <ele>1812.22</ele>
        <time>2012-12-29T08:58:43Z</time>
      </trkpt>
      <trkpt lat="45.21117" lon="5.98604">
        <ele>1813.66</ele>
        <time>2012-12-29T08:59:05Z</time>
      </trkpt>
      <trkpt lat="45.21117" lon="5.98593">
        <ele>1816.07</ele>
        <time>2012-12-29T08:59:22Z</time>
      </trkpt>
      <trkpt lat="45.21116" lon="5.98583">
        <ele>1817.99</ele>
        <time>2012-12-29T08:59:36Z</time>
      </trkpt>
      <trkpt lat="45.21116" lon="5.98573">
        <ele>1820.87</ele>
        <time>2012-12-29T08:59:54Z</time>
      </trkpt>
      <trkpt lat="45.2112" lon="5.98556">
        <ele>1823.28</ele>
        <time>2012-12-29T09:00:15Z</time>
      </trkpt>
      <trkpt lat="45.21124" lon="5.98541">
        <ele>1825.2</ele>
        <time>2012-12-29T09:00:33Z</time>
      </trkpt>
      <trkpt lat="45.21128" lon="5.9853">
        <ele>1827.6</ele>
        <time>2012-12-29T09:00:51Z</time>
      </trkpt>
      <trkpt lat="45.2113" lon="5.98523">
        <ele>1829.53</ele>
        <time>2012-12-29T09:01:12Z</time>
      </trkpt>
      <trkpt lat="45.21119" lon="5.98529">
        <ele>1831.93</ele>
        <time>2012-12-29T09:01:32Z</time>
      </trkpt>
      <trkpt lat="45.21115" lon="5.98533">
        <ele>1835.29</ele>
        <time>2012-12-29T09:01:53Z</time>
      </trkpt>
      <trkpt lat="45.21105" lon="5.98545">
        <ele>1837.7</ele>
        <time>2012-12-29T09:02:13Z</time>
      </trkpt>
      <trkpt lat="45.21094" lon="5.98551">
        <ele>1840.1</ele>
        <time>2012-12-29T09:02:34Z</time>
      </trkpt>
      <trkpt lat="45.2109" lon="5.98554">
        <ele>1842.98</ele>
        <time>2012-12-29T09:02:55Z</time>
      </trkpt>
      <trkpt lat="45.21084" lon="5.98561">
        <ele>1844.91</ele>
        <time>2012-12-29T09:03:16Z</time>
      </trkpt>
      <trkpt lat="45.21082" lon="5.98558">
        <ele>1846.35</ele>
        <time>2012-12-29T09:03:36Z</time>
      </trkpt>
      <trkpt lat="45.21077" lon="5.98568">
        <ele>1847.79</ele>
        <time>2012-12-29T09:03:58Z</time>
      </trkpt>
      <trkpt lat="45.21072" lon="5.98576">
        <ele>1850.68</ele>
        <time>2012-12-29T09:04:16Z</time>
      </trkpt>
      <trkpt lat="45.21068" lon="5.98585">
        <ele>1853.08</ele>
        <time>2012-12-29T09:04:33Z</time>
      </trkpt>
      <trkpt lat="45.21065" lon="5.98594">
        <ele>1855.48</ele>
        <time>2012-12-29T09:04:50Z</time>
      </trkpt>
      <trkpt lat="45.21063" lon="5.98596">
        <ele>1856.44</ele>
        <time>2012-12-29T09:05:09Z</time>
      </trkpt>
      <trkpt lat="45.21064" lon="5.98596">
        <ele>1856.92</ele>
        <time>2012-12-29T09:05:35Z</time>
      </trkpt>
      <trkpt lat="45.21065" lon="5.986">
        <ele>1858.37</ele>
        <time>2012-12-29T09:05:55Z</time>
      </trkpt>
      <trkpt lat="45.21064" lon="5.98608">
        <ele>1858.85</ele>
        <time>2012-12-29T09:06:10Z</time>
      </trkpt>
      <trkpt lat="45.21062" lon="5.98613">
        <ele>1860.29</ele>
        <time>2012-12-29T09:06:26Z</time>
      </trkpt>
      <trkpt lat="45.21062" lon="5.98606">
        <ele>1861.25</ele>
        <time>2012-12-29T09:06:43Z</time>
      </trkpt>
      <trkpt lat="45.21057" lon="5.98595">
        <ele>1862.69</ele>
        <time>2012-12-29T09:06:58Z</time>
      </trkpt>
      <trkpt lat="45.21054" lon="5.98584">
        <ele>1865.09</ele>
        <time>2012-12-29T09:07:15Z</time>
      </trkpt>
      <trkpt lat="45.21053" lon="5.98574">
        <ele>1867.02</ele>
        <time>2012-12-29T09:07:31Z</time>
      </trkpt>
      <trkpt lat="45.21053" lon="5.98564">
        <ele>1870.38</ele>
        <time>2012-12-29T09:07:49Z</time>
      </trkpt>
      <trkpt lat="45.21052" lon="5.9856">
        <ele>1872.79</ele>
        <time>2012-12-29T09:08:07Z</time>
      </trkpt>
      <trkpt lat="45.21053" lon="5.98557">
        <ele>1876.15</ele>
        <time>2012-12-29T09:08:26Z</time>
      </trkpt>
      <trkpt lat="45.21054" lon="5.98554">
        <ele>1878.07</ele>
        <time>2012-12-29T09:08:42Z</time>
      </trkpt>
      <trkpt lat="45.21055" lon="5.98549">
        <ele>1880.48</ele>
        <time>2012-12-29T09:09:01Z</time>
      </trkpt>
      <trkpt lat="45.21057" lon="5.98547">
        <ele>1880.96</ele>
        <time>2012-12-29T09:09:22Z</time>
      </trkpt>
      <trkpt lat="45.21054" lon="5.98541">
        <ele>1880.96</ele>
        <time>2012-12-29T09:09:58Z</time>
      </trkpt>
      <trkpt lat="45.2105" lon="5.98539">
        <ele>1882.4</ele>
        <time>2012-12-29T09:10:13Z</time>
      </trkpt>
      <trkpt lat="45.21046" lon="5.98537">
        <ele>1884.8</ele>
        <time>2012-12-29T09:10:32Z</time>
      </trkpt>
      <trkpt lat="45.21035" lon="5.98541">
        <ele>1887.21</ele>
        <time>2012-12-29T09:10:52Z</time>
      </trkpt>
      <trkpt lat="45.21029" lon="5.98549">
        <ele>1889.13</ele>
        <time>2012-12-29T09:11:08Z</time>
      </trkpt>
      <trkpt lat="45.21021" lon="5.98559">
        <ele>1891.53</ele>
        <time>2012-12-29T09:11:25Z</time>
      </trkpt>
      <trkpt lat="45.21015" lon="5.98569">
        <ele>1894.42</ele>
        <time>2012-12-29T09:11:42Z</time>
      </trkpt>
      <trkpt lat="45.21011" lon="5.98579">
        <ele>1896.34</ele>
        <time>2012-12-29T09:12:00Z</time>
      </trkpt>
      <trkpt lat="45.21008" lon="5.98591">
        <ele>1898.26</ele>
        <time>2012-12-29T09:12:17Z</time>
      </trkpt>
      <trkpt lat="45.21006" lon="5.986">
        <ele>1900.66</ele>
        <time>2012-12-29T09:12:34Z</time>
      </trkpt>
      <trkpt lat="45.21003" lon="5.9861">
        <ele>1903.07</ele>
        <time>2012-12-29T09:12:50Z</time>
      </trkpt>
      <trkpt lat="45.20993" lon="5.98616">
        <ele>1905.47</ele>
        <time>2012-12-29T09:13:07Z</time>
      </trkpt>
      <trkpt lat="45.20984" lon="5.98623">
        <ele>1908.83</ele>
        <time>2012-12-29T09:13:26Z</time>
      </trkpt>
      <trkpt lat="45.20976" lon="5.98631">
        <ele>1911.24</ele>
        <time>2012-12-29T09:13:45Z</time>
      </trkpt>
      <trkpt lat="45.20969" lon="5.98638">
        <ele>1912.68</ele>
        <time>2012-12-29T09:14:00Z</time>
      </trkpt>
      <trkpt lat="45.20966" lon="5.98653">
        <ele>1914.6</ele>
        <time>2012-12-29T09:14:17Z</time>
      </trkpt>
      <trkpt lat="45.20964" lon="5.9866">
        <ele>1915.56</ele>
        <time>2012-12-29T09:14:35Z</time>
      </trkpt>
      <trkpt lat="45.20964" lon="5.9866">
        <ele>1916.04</ele>
        <time>2012-12-29T09:15:03Z</time>
      </trkpt>
      <trkpt lat="45.20964" lon="5.9866">
        <ele>1916.04</ele>
        <time>2012-12-29T09:15:35Z</time>
      </trkpt>
      <trkpt lat="45.20964" lon="5.9866">
        <ele>1916.04</ele>
        <time>2012-12-29T09:16:11Z</time>
      </trkpt>
      <trkpt lat="45.20964" lon="5.9866">
        <ele>1916.04</ele>
        <time>2012-12-29T09:16:42Z</time>
      </trkpt>
      <trkpt lat="45.20964" lon="5.9866">
        <ele>1916.04</ele>
        <time>2012-12-29T09:17:15Z</time>
      </trkpt>
      <trkpt lat="45.20964" lon="5.9866">
        <ele>1916.04</ele>
        <time>2012-12-29T09:17:36Z</time>
      </trkpt>
      <trkpt lat="45.20963" lon="5.9866">
        <ele>1916.04</ele>
        <time>2012-12-29T09:18:08Z</time>
      </trkpt>
      <trkpt lat="45.20963" lon="5.9866">
        <ele>1916.53</ele>
        <time>2012-12-29T09:18:41Z</time>
      </trkpt>
      <trkpt lat="45.20963" lon="5.9866">
        <ele>1916.53</ele>
        <time>2012-12-29T09:19:14Z</time>
      </trkpt>
      <trkpt lat="45.20963" lon="5.9866">
        <ele>1916.53</ele>
        <time>2012-12-29T09:19:39Z</time>
      </trkpt>
      <trkpt lat="45.20963" lon="5.9866">
        <ele>1916.53</ele>
        <time>2012-12-29T09:20:10Z</time>
      </trkpt>
      <trkpt lat="45.20963" lon="5.9866">
        <ele>1916.53</ele>
        <time>2012-12-29T09:20:42Z</time>
      </trkpt>
      <trkpt lat="45.20963" lon="5.9866">
        <ele>1916.53</ele>
        <time>2012-12-29T09:21:11Z</time>
      </trkpt>
      <trkpt lat="45.20962" lon="5.98658">
        <ele>1916.53</ele>
        <time>2012-12-29T09:21:40Z</time>
      </trkpt>
      <trkpt lat="45.20962" lon="5.98658">
        <ele>1916.53</ele>
        <time>2012-12-29T09:21:59Z</time>
      </trkpt>
      <trkpt lat="45.20962" lon="5.98657">
        <ele>1916.53</ele>
        <time>2012-12-29T09:22:16Z</time>
      </trkpt>
      <trkpt lat="45.20963" lon="5.98658">
        <ele>1916.53</ele>
        <time>2012-12-29T09:22:37Z</time>
      </trkpt>
      <trkpt lat="45.20963" lon="5.9866">
        <ele>1917.01</ele>
        <time>2012-12-29T09:22:54Z</time>
      </trkpt>
      <trkpt lat="45.20962" lon="5.98661">
        <ele>1917.01</ele>
        <time>2012-12-29T09:22:55Z</time>
      </trkpt>
      <trkpt lat="45.2096" lon="5.98665">
        <ele>1917.01</ele>
        <time>2012-12-29T09:22:59Z</time>
      </trkpt>
      <trkpt lat="45.20955" lon="5.98671">
        <ele>1917.01</ele>
        <time>2012-12-29T09:23:03Z</time>
      </trkpt>
      <trkpt lat="45.20948" lon="5.98689">
        <ele>1911.72</ele>
        <time>2012-12-29T09:23:10Z</time>
      </trkpt>
      <trkpt lat="45.20944" lon="5.98697">
        <ele>1908.35</ele>
        <time>2012-12-29T09:23:12Z</time>
      </trkpt>
      <trkpt lat="45.20941" lon="5.98702">
        <ele>1904.51</ele>
        <time>2012-12-29T09:23:14Z</time>
      </trkpt>
      <trkpt lat="45.20939" lon="5.98705">
        <ele>1901.14</ele>
        <time>2012-12-29T09:23:16Z</time>
      </trkpt>
      <trkpt lat="45.20934" lon="5.9871">
        <ele>1898.26</ele>
        <time>2012-12-29T09:23:20Z</time>
      </trkpt>
      <trkpt lat="45.20933" lon="5.98713">
        <ele>1899.22</ele>
        <time>2012-12-29T09:23:22Z</time>
      </trkpt>
      <trkpt lat="45.2093" lon="5.98719">
        <ele>1903.07</ele>
        <time>2012-12-29T09:23:28Z</time>
      </trkpt>
      <trkpt lat="45.20925" lon="5.98729">
        <ele>1903.55</ele>
        <time>2012-12-29T09:23:37Z</time>
      </trkpt>
      <trkpt lat="45.20921" lon="5.98738">
        <ele>1902.59</ele>
        <time>2012-12-29T09:23:42Z</time>
      </trkpt>
      <trkpt lat="45.2092" lon="5.98751">
        <ele>1902.59</ele>
        <time>2012-12-29T09:23:53Z</time>
      </trkpt>
      <trkpt lat="45.20919" lon="5.98753">
        <ele>1902.59</ele>
        <time>2012-12-29T09:23:54Z</time>
      </trkpt>
      <trkpt lat="45.2091" lon="5.98769">
        <ele>1901.63</ele>
        <time>2012-12-29T09:24:04Z</time>
      </trkpt>
      <trkpt lat="45.20909" lon="5.98773">
        <ele>1901.63</ele>
        <time>2012-12-29T09:24:07Z</time>
      </trkpt>
      <trkpt lat="45.20909" lon="5.98776">
        <ele>1901.63</ele>
        <time>2012-12-29T09:24:08Z</time>
      </trkpt>
      <trkpt lat="45.20908" lon="5.98809">
        <ele>1901.14</ele>
        <time>2012-12-29T09:24:22Z</time>
      </trkpt>
      <trkpt lat="45.20907" lon="5.98819">
        <ele>1900.18</ele>
        <time>2012-12-29T09:24:34Z</time>
      </trkpt>
      <trkpt lat="45.20907" lon="5.98821">
        <ele>1899.7</ele>
        <time>2012-12-29T09:24:35Z</time>
      </trkpt>
      <trkpt lat="45.20907" lon="5.98823">
        <ele>1899.7</ele>
        <time>2012-12-29T09:24:36Z</time>
      </trkpt>
      <trkpt lat="45.20906" lon="5.98825">
        <ele>1899.7</ele>
        <time>2012-12-29T09:24:37Z</time>
      </trkpt>
      <trkpt lat="45.20906" lon="5.98828">
        <ele>1899.7</ele>
        <time>2012-12-29T09:24:38Z</time>
      </trkpt>
      <trkpt lat="45.209" lon="5.98845">
        <ele>1898.74</ele>
        <time>2012-12-29T09:24:49Z</time>
      </trkpt>
      <trkpt lat="45.20899" lon="5.98846">
        <ele>1898.74</ele>
        <time>2012-12-29T09:24:50Z</time>
      </trkpt>
      <trkpt lat="45.20898" lon="5.98847">
        <ele>1898.74</ele>
        <time>2012-12-29T09:24:51Z</time>
      </trkpt>
      <trkpt lat="45.20897" lon="5.98847">
        <ele>1898.74</ele>
        <time>2012-12-29T09:24:52Z</time>
      </trkpt>
      <trkpt lat="45.20895" lon="5.98848">
        <ele>1898.74</ele>
        <time>2012-12-29T09:24:54Z</time>
      </trkpt>
      <trkpt lat="45.20892" lon="5.98849">
        <ele>1898.26</ele>
        <time>2012-12-29T09:24:56Z</time>
      </trkpt>
      <trkpt lat="45.20891" lon="5.9885">
        <ele>1898.26</ele>
        <time>2012-12-29T09:24:57Z</time>
      </trkpt>
      <trkpt lat="45.20889" lon="5.98851">
        <ele>1898.26</ele>
        <time>2012-12-29T09:24:58Z</time>
      </trkpt>
      <trkpt lat="45.20888" lon="5.98852">
        <ele>1898.26</ele>
        <time>2012-12-29T09:24:59Z</time>
      </trkpt>
      <trkpt lat="45.20884" lon="5.98853">
        <ele>1898.26</ele>
        <time>2012-12-29T09:25:03Z</time>
      </trkpt>
      <trkpt lat="45.20881" lon="5.98854">
        <ele>1898.26</ele>
        <time>2012-12-29T09:25:06Z</time>
      </trkpt>
      <trkpt lat="45.2088" lon="5.98854">
        <ele>1898.26</ele>
        <time>2012-12-29T09:25:07Z</time>
      </trkpt>
      <trkpt lat="45.20879" lon="5.98855">
        <ele>1898.26</ele>
        <time>2012-12-29T09:25:08Z</time>
      </trkpt>
      <trkpt lat="45.20876" lon="5.98856">
        <ele>1898.26</ele>
        <time>2012-12-29T09:25:11Z</time>
      </trkpt>
      <trkpt lat="45.20862" lon="5.9886">
        <ele>1899.7</ele>
        <time>2012-12-29T09:25:26Z</time>
      </trkpt>
      <trkpt lat="45.20853" lon="5.98862">
        <ele>1900.18</ele>
        <time>2012-12-29T09:25:36Z</time>
      </trkpt>
      <trkpt lat="45.20842" lon="5.98866">
        <ele>1901.63</ele>
        <time>2012-12-29T09:25:49Z</time>
      </trkpt>
      <trkpt lat="45.2083" lon="5.98872">
        <ele>1902.59</ele>
        <time>2012-12-29T09:26:03Z</time>
      </trkpt>
      <trkpt lat="45.20819" lon="5.98876">
        <ele>1903.55</ele>
        <time>2012-12-29T09:26:18Z</time>
      </trkpt>
      <trkpt lat="45.20812" lon="5.98878">
        <ele>1904.51</ele>
        <time>2012-12-29T09:26:26Z</time>
      </trkpt>
      <trkpt lat="45.20808" lon="5.9888">
        <ele>1904.99</ele>
        <time>2012-12-29T09:26:30Z</time>
      </trkpt>
      <trkpt lat="45.20804" lon="5.98881">
        <ele>1905.95</ele>
        <time>2012-12-29T09:26:36Z</time>
      </trkpt>
      <trkpt lat="45.20794" lon="5.98884">
        <ele>1907.39</ele>
        <time>2012-12-29T09:26:50Z</time>
      </trkpt>
      <trkpt lat="45.20785" lon="5.98884">
        <ele>1908.35</ele>
        <time>2012-12-29T09:27:02Z</time>
      </trkpt>
      <trkpt lat="45.20775" lon="5.98891">
        <ele>1910.76</ele>
        <time>2012-12-29T09:27:17Z</time>
      </trkpt>
      <trkpt lat="45.20767" lon="5.98894">
        <ele>1912.2</ele>
        <time>2012-12-29T09:27:29Z</time>
      </trkpt>
      <trkpt lat="45.2076" lon="5.98895">
        <ele>1913.16</ele>
        <time>2012-12-29T09:27:37Z</time>
      </trkpt>
      <trkpt lat="45.20753" lon="5.98893">
        <ele>1914.6</ele>
        <time>2012-12-29T09:27:49Z</time>
      </trkpt>
      <trkpt lat="45.20743" lon="5.98894">
        <ele>1916.53</ele>
        <time>2012-12-29T09:28:02Z</time>
      </trkpt>
      <trkpt lat="45.2074" lon="5.98894">
        <ele>1917.01</ele>
        <time>2012-12-29T09:28:08Z</time>
      </trkpt>
      <trkpt lat="45.20733" lon="5.98895">
        <ele>1917.97</ele>
        <time>2012-12-29T09:28:20Z</time>
      </trkpt>
      <trkpt lat="45.20723" lon="5.98899">
        <ele>1919.89</ele>
        <time>2012-12-29T09:28:35Z</time>
      </trkpt>
      <trkpt lat="45.20715" lon="5.98901">
        <ele>1921.33</ele>
        <time>2012-12-29T09:28:47Z</time>
      </trkpt>
      <trkpt lat="45.20707" lon="5.98902">
        <ele>1923.25</ele>
        <time>2012-12-29T09:29:03Z</time>
      </trkpt>
      <trkpt lat="45.20698" lon="5.98907">
        <ele>1924.7</ele>
        <time>2012-12-29T09:29:18Z</time>
      </trkpt>
      <trkpt lat="45.2069" lon="5.98916">
        <ele>1926.62</ele>
        <time>2012-12-29T09:29:32Z</time>
      </trkpt>
      <trkpt lat="45.20682" lon="5.98919">
        <ele>1928.06</ele>
        <time>2012-12-29T09:29:43Z</time>
      </trkpt>
      <trkpt lat="45.20676" lon="5.98918">
        <ele>1929.5</ele>
        <time>2012-12-29T09:29:55Z</time>
      </trkpt>
      <trkpt lat="45.20665" lon="5.98915">
        <ele>1931.91</ele>
        <time>2012-12-29T09:30:13Z</time>
      </trkpt>
      <trkpt lat="45.20656" lon="5.98914">
        <ele>1933.35</ele>
        <time>2012-12-29T09:30:27Z</time>
      </trkpt>
      <trkpt lat="45.20644" lon="5.98909">
        <ele>1935.27</ele>
        <time>2012-12-29T09:30:43Z</time>
      </trkpt>
      <trkpt lat="45.20633" lon="5.98903">
        <ele>1937.19</ele>
        <time>2012-12-29T09:31:00Z</time>
      </trkpt>
      <trkpt lat="45.20624" lon="5.98897">
        <ele>1939.12</ele>
        <time>2012-12-29T09:31:18Z</time>
      </trkpt>
      <trkpt lat="45.20617" lon="5.98891">
        <ele>1940.56</ele>
        <time>2012-12-29T09:31:33Z</time>
      </trkpt>
      <trkpt lat="45.20609" lon="5.98886">
        <ele>1942.96</ele>
        <time>2012-12-29T09:31:49Z</time>
      </trkpt>
      <trkpt lat="45.206" lon="5.98882">
        <ele>1945.36</ele>
        <time>2012-12-29T09:32:04Z</time>
      </trkpt>
      <trkpt lat="45.20592" lon="5.98878">
        <ele>1946.81</ele>
        <time>2012-12-29T09:32:18Z</time>
      </trkpt>
      <trkpt lat="45.20587" lon="5.98875">
        <ele>1948.73</ele>
        <time>2012-12-29T09:32:30Z</time>
      </trkpt>
      <trkpt lat="45.20578" lon="5.98872">
        <ele>1950.65</ele>
        <time>2012-12-29T09:32:45Z</time>
      </trkpt>
      <trkpt lat="45.2057" lon="5.98869">
        <ele>1953.06</ele>
        <time>2012-12-29T09:32:59Z</time>
      </trkpt>
      <trkpt lat="45.20563" lon="5.98868">
        <ele>1954.5</ele>
        <time>2012-12-29T09:33:13Z</time>
      </trkpt>
      <trkpt lat="45.20561" lon="5.98874">
        <ele>1955.94</ele>
        <time>2012-12-29T09:33:29Z</time>
      </trkpt>
      <trkpt lat="45.20561" lon="5.98878">
        <ele>1956.42</ele>
        <time>2012-12-29T09:33:46Z</time>
      </trkpt>
      <trkpt lat="45.20562" lon="5.98878">
        <ele>1957.38</ele>
        <time>2012-12-29T09:34:07Z</time>
      </trkpt>
      <trkpt lat="45.20562" lon="5.98877">
        <ele>1957.38</ele>
        <time>2012-12-29T09:34:27Z</time>
      </trkpt>
      <trkpt lat="45.20562" lon="5.98877">
        <ele>1957.38</ele>
        <time>2012-12-29T09:34:32Z</time>
      </trkpt>
      <trkpt lat="45.20551" lon="5.98877">
        <ele>1958.34</ele>
        <time>2012-12-29T09:34:47Z</time>
      </trkpt>
      <trkpt lat="45.20542" lon="5.98878">
        <ele>1960.75</ele>
        <time>2012-12-29T09:35:02Z</time>
      </trkpt>
      <trkpt lat="45.20535" lon="5.98882">
        <ele>1962.19</ele>
        <time>2012-12-29T09:35:14Z</time>
      </trkpt>
      <trkpt lat="45.2053" lon="5.98895">
        <ele>1965.07</ele>
        <time>2012-12-29T09:35:31Z</time>
      </trkpt>
      <trkpt lat="45.20521" lon="5.98898">
        <ele>1966.99</ele>
        <time>2012-12-29T09:35:43Z</time>
      </trkpt>
      <trkpt lat="45.20518" lon="5.989">
        <ele>1968.44</ele>
        <time>2012-12-29T09:35:55Z</time>
      </trkpt>
      <trkpt lat="45.20515" lon="5.98895">
        <ele>1968.92</ele>
        <time>2012-12-29T09:36:03Z</time>
      </trkpt>
      <trkpt lat="45.20506" lon="5.98891">
        <ele>1969.88</ele>
        <time>2012-12-29T09:36:16Z</time>
      </trkpt>
      <trkpt lat="45.20499" lon="5.98887">
        <ele>1971.8</ele>
        <time>2012-12-29T09:36:27Z</time>
      </trkpt>
      <trkpt lat="45.20489" lon="5.98883">
        <ele>1973.72</ele>
        <time>2012-12-29T09:36:41Z</time>
      </trkpt>
      <trkpt lat="45.20482" lon="5.9888">
        <ele>1975.17</ele>
        <time>2012-12-29T09:36:55Z</time>
      </trkpt>
      <trkpt lat="45.20478" lon="5.98879">
        <ele>1978.05</ele>
        <time>2012-12-29T09:37:14Z</time>
      </trkpt>
      <trkpt lat="45.20476" lon="5.98875">
        <ele>1979.49</ele>
        <time>2012-12-29T09:37:29Z</time>
      </trkpt>
      <trkpt lat="45.20465" lon="5.9886">
        <ele>1981.41</ele>
        <time>2012-12-29T09:37:44Z</time>
      </trkpt>
      <trkpt lat="45.20456" lon="5.98849">
        <ele>1982.86</ele>
        <time>2012-12-29T09:37:57Z</time>
      </trkpt>
      <trkpt lat="45.20447" lon="5.98841">
        <ele>1984.78</ele>
        <time>2012-12-29T09:38:14Z</time>
      </trkpt>
      <trkpt lat="45.20447" lon="5.98832">
        <ele>1986.7</ele>
        <time>2012-12-29T09:38:31Z</time>
      </trkpt>
      <trkpt lat="45.20447" lon="5.98832">
        <ele>1987.66</ele>
        <time>2012-12-29T09:38:50Z</time>
      </trkpt>
      <trkpt lat="45.2044" lon="5.98823">
        <ele>1989.59</ele>
        <time>2012-12-29T09:39:05Z</time>
      </trkpt>
      <trkpt lat="45.20432" lon="5.9881">
        <ele>1992.47</ele>
        <time>2012-12-29T09:39:23Z</time>
      </trkpt>
      <trkpt lat="45.20429" lon="5.98799">
        <ele>1993.91</ele>
        <time>2012-12-29T09:39:38Z</time>
      </trkpt>
      <trkpt lat="45.20431" lon="5.98787">
        <ele>1995.83</ele>
        <time>2012-12-29T09:39:53Z</time>
      </trkpt>
      <trkpt lat="45.20433" lon="5.98773">
        <ele>1998.24</ele>
        <time>2012-12-29T09:40:10Z</time>
      </trkpt>
      <trkpt lat="45.20435" lon="5.98763">
        <ele>2000.16</ele>
        <time>2012-12-29T09:40:23Z</time>
      </trkpt>
      <trkpt lat="45.20437" lon="5.98753">
        <ele>2002.56</ele>
        <time>2012-12-29T09:40:37Z</time>
      </trkpt>
      <trkpt lat="45.2044" lon="5.98744">
        <ele>2004.01</ele>
        <time>2012-12-29T09:40:52Z</time>
      </trkpt>
      <trkpt lat="45.20441" lon="5.98728">
        <ele>2006.89</ele>
        <time>2012-12-29T09:41:11Z</time>
      </trkpt>
      <trkpt lat="45.20441" lon="5.98724">
        <ele>2008.81</ele>
        <time>2012-12-29T09:41:25Z</time>
      </trkpt>
      <trkpt lat="45.20442" lon="5.98726">
        <ele>2009.77</ele>
        <time>2012-12-29T09:41:51Z</time>
      </trkpt>
      <trkpt lat="45.20438" lon="5.98727">
        <ele>2011.22</ele>
        <time>2012-12-29T09:42:05Z</time>
      </trkpt>
      <trkpt lat="45.20426" lon="5.98735">
        <ele>2013.62</ele>
        <time>2012-12-29T09:42:18Z</time>
      </trkpt>
      <trkpt lat="45.20417" lon="5.98743">
        <ele>2016.02</ele>
        <time>2012-12-29T09:42:30Z</time>
      </trkpt>
      <trkpt lat="45.20411" lon="5.98751">
        <ele>2017.94</ele>
        <time>2012-12-29T09:42:42Z</time>
      </trkpt>
      <trkpt lat="45.20407" lon="5.98758">
        <ele>2019.87</ele>
        <time>2012-12-29T09:42:56Z</time>
      </trkpt>
      <trkpt lat="45.20401" lon="5.98765">
        <ele>2021.31</ele>
        <time>2012-12-29T09:43:08Z</time>
      </trkpt>
      <trkpt lat="45.20399" lon="5.98766">
        <ele>2021.79</ele>
        <time>2012-12-29T09:43:11Z</time>
      </trkpt>
      <trkpt lat="45.20397" lon="5.98768">
        <ele>2022.27</ele>
        <time>2012-12-29T09:43:15Z</time>
      </trkpt>
      <trkpt lat="45.20392" lon="5.98777">
        <ele>2025.15</ele>
        <time>2012-12-29T09:43:31Z</time>
      </trkpt>
      <trkpt lat="45.20393" lon="5.98781">
        <ele>2027.56</ele>
        <time>2012-12-29T09:43:46Z</time>
      </trkpt>
      <trkpt lat="45.20394" lon="5.98784">
        <ele>2029.48</ele>
        <time>2012-12-29T09:44:01Z</time>
      </trkpt>
      <trkpt lat="45.20394" lon="5.98785">
        <ele>2029.48</ele>
        <time>2012-12-29T09:44:02Z</time>
      </trkpt>
      <trkpt lat="45.20383" lon="5.98785">
        <ele>2030.44</ele>
        <time>2012-12-29T09:44:16Z</time>
      </trkpt>
      <trkpt lat="45.20376" lon="5.98783">
        <ele>2031.4</ele>
        <time>2012-12-29T09:44:28Z</time>
      </trkpt>
      <trkpt lat="45.20368" lon="5.98788">
        <ele>2033.33</ele>
        <time>2012-12-29T09:44:40Z</time>
      </trkpt>
      <trkpt lat="45.20368" lon="5.98786">
        <ele>2034.77</ele>
        <time>2012-12-29T09:44:56Z</time>
      </trkpt>
      <trkpt lat="45.20369" lon="5.98786">
        <ele>2035.25</ele>
        <time>2012-12-29T09:45:23Z</time>
      </trkpt>
      <trkpt lat="45.20368" lon="5.98789">
        <ele>2035.25</ele>
        <time>2012-12-29T09:45:47Z</time>
      </trkpt>
      <trkpt lat="45.20368" lon="5.98789">
        <ele>2035.73</ele>
        <time>2012-12-29T09:46:07Z</time>
      </trkpt>
      <trkpt lat="45.20367" lon="5.9879">
        <ele>2035.73</ele>
        <time>2012-12-29T09:46:29Z</time>
      </trkpt>
      <trkpt lat="45.20367" lon="5.98789">
        <ele>2035.73</ele>
        <time>2012-12-29T09:46:47Z</time>
      </trkpt>
      <trkpt lat="45.20367" lon="5.9879">
        <ele>2035.73</ele>
        <time>2012-12-29T09:47:18Z</time>
      </trkpt>
      <trkpt lat="45.20367" lon="5.98789">
        <ele>2036.21</ele>
        <time>2012-12-29T09:47:39Z</time>
      </trkpt>
      <trkpt lat="45.20367" lon="5.98788">
        <ele>2036.21</ele>
        <time>2012-12-29T09:47:59Z</time>
      </trkpt>
      <trkpt lat="45.20367" lon="5.98788">
        <ele>2036.69</ele>
        <time>2012-12-29T09:48:21Z</time>
      </trkpt>
      <trkpt lat="45.20367" lon="5.98788">
        <ele>2036.69</ele>
        <time>2012-12-29T09:48:41Z</time>
      </trkpt>
      <trkpt lat="45.20363" lon="5.98787">
        <ele>2037.17</ele>
        <time>2012-12-29T09:48:51Z</time>
      </trkpt>
      <trkpt lat="45.20361" lon="5.98786">
        <ele>2037.65</ele>
        <time>2012-12-29T09:49:04Z</time>
      </trkpt>
      <trkpt lat="45.20357" lon="5.98786">
        <ele>2039.09</ele>
        <time>2012-12-29T09:49:18Z</time>
      </trkpt>
      <trkpt lat="45.20348" lon="5.98783">
        <ele>2041.02</ele>
        <time>2012-12-29T09:49:31Z</time>
      </trkpt>
      <trkpt lat="45.20345" lon="5.98784">
        <ele>2041.5</ele>
        <time>2012-12-29T09:49:35Z</time>
      </trkpt>
      <trkpt lat="45.20339" lon="5.98783">
        <ele>2042.46</ele>
        <time>2012-12-29T09:49:46Z</time>
      </trkpt>
      <trkpt lat="45.20334" lon="5.98783">
        <ele>2043.9</ele>
        <time>2012-12-29T09:49:56Z</time>
      </trkpt>
      <trkpt lat="45.20332" lon="5.98782">
        <ele>2045.34</ele>
        <time>2012-12-29T09:50:10Z</time>
      </trkpt>
      <trkpt lat="45.20327" lon="5.98783">
        <ele>2046.3</ele>
        <time>2012-12-29T09:50:21Z</time>
      </trkpt>
      <trkpt lat="45.2032" lon="5.98783">
        <ele>2048.71</ele>
        <time>2012-12-29T09:50:37Z</time>
      </trkpt>
      <trkpt lat="45.20307" lon="5.98786">
        <ele>2050.63</ele>
        <time>2012-12-29T09:50:53Z</time>
      </trkpt>
      <trkpt lat="45.20304" lon="5.98786">
        <ele>2052.55</ele>
        <time>2012-12-29T09:51:03Z</time>
      </trkpt>
      <trkpt lat="45.20301" lon="5.98785">
        <ele>2053.51</ele>
        <time>2012-12-29T09:51:16Z</time>
      </trkpt>
      <trkpt lat="45.20298" lon="5.98785">
        <ele>2053.51</ele>
        <time>2012-12-29T09:51:20Z</time>
      </trkpt>
      <trkpt lat="45.20289" lon="5.98786">
        <ele>2055.44</ele>
        <time>2012-12-29T09:51:32Z</time>
      </trkpt>
      <trkpt lat="45.20283" lon="5.98786">
        <ele>2057.36</ele>
        <time>2012-12-29T09:51:46Z</time>
      </trkpt>
      <trkpt lat="45.20279" lon="5.98786">
        <ele>2058.8</ele>
        <time>2012-12-29T09:51:52Z</time>
      </trkpt>
      <trkpt lat="45.20268" lon="5.98782">
        <ele>2060.72</ele>
        <time>2012-12-29T09:52:05Z</time>
      </trkpt>
      <trkpt lat="45.20263" lon="5.98781">
        <ele>2062.17</ele>
        <time>2012-12-29T09:52:16Z</time>
      </trkpt>
      <trkpt lat="45.20263" lon="5.98781">
        <ele>2063.13</ele>
        <time>2012-12-29T09:52:29Z</time>
      </trkpt>
      <trkpt lat="45.20262" lon="5.98783">
        <ele>2063.61</ele>
        <time>2012-12-29T09:52:52Z</time>
      </trkpt>
      <trkpt lat="45.20261" lon="5.98783">
        <ele>2063.61</ele>
        <time>2012-12-29T09:52:53Z</time>
      </trkpt>
      <trkpt lat="45.20254" lon="5.98778">
        <ele>2065.53</ele>
        <time>2012-12-29T09:53:03Z</time>
      </trkpt>
      <trkpt lat="45.20248" lon="5.98778">
        <ele>2066.49</ele>
        <time>2012-12-29T09:53:13Z</time>
      </trkpt>
      <trkpt lat="45.20243" lon="5.98779">
        <ele>2067.93</ele>
        <time>2012-12-29T09:53:24Z</time>
      </trkpt>
      <trkpt lat="45.20234" lon="5.98775">
        <ele>2069.38</ele>
        <time>2012-12-29T09:53:36Z</time>
      </trkpt>
      <trkpt lat="45.20229" lon="5.98775">
        <ele>2070.82</ele>
        <time>2012-12-29T09:53:46Z</time>
      </trkpt>
      <trkpt lat="45.20223" lon="5.98777">
        <ele>2072.26</ele>
        <time>2012-12-29T09:54:00Z</time>
      </trkpt>
      <trkpt lat="45.20221" lon="5.98777">
        <ele>2073.22</ele>
        <time>2012-12-29T09:54:13Z</time>
      </trkpt>
      <trkpt lat="45.20222" lon="5.9878">
        <ele>2073.7</ele>
        <time>2012-12-29T09:54:34Z</time>
      </trkpt>
      <trkpt lat="45.2022" lon="5.98782">
        <ele>2075.14</ele>
        <time>2012-12-29T09:54:52Z</time>
      </trkpt>
      <trkpt lat="45.20212" lon="5.98778">
        <ele>2076.1</ele>
        <time>2012-12-29T09:55:04Z</time>
      </trkpt>
      <trkpt lat="45.20205" lon="5.98775">
        <ele>2077.55</ele>
        <time>2012-12-29T09:55:16Z</time>
      </trkpt>
      <trkpt lat="45.20199" lon="5.98776">
        <ele>2079.47</ele>
        <time>2012-12-29T09:55:28Z</time>
      </trkpt>
      <trkpt lat="45.2019" lon="5.98779">
        <ele>2081.87</ele>
        <time>2012-12-29T09:55:42Z</time>
      </trkpt>
      <trkpt lat="45.20185" lon="5.98785">
        <ele>2084.28</ele>
        <time>2012-12-29T09:55:57Z</time>
      </trkpt>
      <trkpt lat="45.20185" lon="5.98786">
        <ele>2085.24</ele>
        <time>2012-12-29T09:56:23Z</time>
      </trkpt>
      <trkpt lat="45.20184" lon="5.98789">
        <ele>2085.24</ele>
        <time>2012-12-29T09:56:48Z</time>
      </trkpt>
      <trkpt lat="45.20182" lon="5.9879">
        <ele>2086.2</ele>
        <time>2012-12-29T09:57:02Z</time>
      </trkpt>
      <trkpt lat="45.20179" lon="5.98791">
        <ele>2088.6</ele>
        <time>2012-12-29T09:57:17Z</time>
      </trkpt>
      <trkpt lat="45.20176" lon="5.98793">
        <ele>2090.52</ele>
        <time>2012-12-29T09:57:32Z</time>
      </trkpt>
      <trkpt lat="45.20171" lon="5.98796">
        <ele>2091.97</ele>
        <time>2012-12-29T09:57:55Z</time>
      </trkpt>
      <trkpt lat="45.2016" lon="5.98802">
        <ele>2094.37</ele>
        <time>2012-12-29T09:58:11Z</time>
      </trkpt>
      <trkpt lat="45.20153" lon="5.98805">
        <ele>2097.25</ele>
        <time>2012-12-29T09:58:27Z</time>
      </trkpt>
      <trkpt lat="45.20146" lon="5.98808">
        <ele>2099.66</ele>
        <time>2012-12-29T09:58:46Z</time>
      </trkpt>
      <trkpt lat="45.2014" lon="5.9881">
        <ele>2100.62</ele>
        <time>2012-12-29T09:59:04Z</time>
      </trkpt>
      <trkpt lat="45.20131" lon="5.98813">
        <ele>2103.02</ele>
        <time>2012-12-29T09:59:21Z</time>
      </trkpt>
      <trkpt lat="45.20128" lon="5.98814">
        <ele>2104.46</ele>
        <time>2012-12-29T09:59:39Z</time>
      </trkpt>
      <trkpt lat="45.20124" lon="5.98815">
        <ele>2106.87</ele>
        <time>2012-12-29T09:59:55Z</time>
      </trkpt>
      <trkpt lat="45.2012" lon="5.98819">
        <ele>2108.31</ele>
        <time>2012-12-29T10:00:15Z</time>
      </trkpt>
      <trkpt lat="45.20116" lon="5.98822">
        <ele>2109.27</ele>
        <time>2012-12-29T10:00:32Z</time>
      </trkpt>
      <trkpt lat="45.2011" lon="5.98827">
        <ele>2111.67</ele>
        <time>2012-12-29T10:00:45Z</time>
      </trkpt>
      <trkpt lat="45.20104" lon="5.98832">
        <ele>2115.04</ele>
        <time>2012-12-29T10:01:05Z</time>
      </trkpt>
      <trkpt lat="45.20099" lon="5.98835">
        <ele>2116.96</ele>
        <time>2012-12-29T10:01:17Z</time>
      </trkpt>
      <trkpt lat="45.20097" lon="5.98839">
        <ele>2119.84</ele>
        <time>2012-12-29T10:01:33Z</time>
      </trkpt>
      <trkpt lat="45.2009" lon="5.98858">
        <ele>2121.29</ele>
        <time>2012-12-29T10:01:50Z</time>
      </trkpt>
      <trkpt lat="45.20089" lon="5.98861">
        <ele>2121.77</ele>
        <time>2012-12-29T10:02:10Z</time>
      </trkpt>
      <trkpt lat="45.20087" lon="5.98858">
        <ele>2121.77</ele>
        <time>2012-12-29T10:02:30Z</time>
      </trkpt>
      <trkpt lat="45.20084" lon="5.98846">
        <ele>2123.21</ele>
        <time>2012-12-29T10:02:45Z</time>
      </trkpt>
      <trkpt lat="45.20081" lon="5.98829">
        <ele>2125.61</ele>
        <time>2012-12-29T10:03:01Z</time>
      </trkpt>
      <trkpt lat="45.20082" lon="5.98817">
        <ele>2127.53</ele>
        <time>2012-12-29T10:03:17Z</time>
      </trkpt>
      <trkpt lat="45.20084" lon="5.98811">
        <ele>2128.02</ele>
        <time>2012-12-29T10:03:30Z</time>
      </trkpt>
      <trkpt lat="45.20084" lon="5.98811">
        <ele>2128.5</ele>
        <time>2012-12-29T10:03:52Z</time>
      </trkpt>
      <trkpt lat="45.20084" lon="5.98812">
        <ele>2128.98</ele>
        <time>2012-12-29T10:04:13Z</time>
      </trkpt>
      <trkpt lat="45.20085" lon="5.9881">
        <ele>2129.46</ele>
        <time>2012-12-29T10:04:27Z</time>
      </trkpt>
      <trkpt lat="45.20087" lon="5.98801">
        <ele>2130.42</ele>
        <time>2012-12-29T10:04:39Z</time>
      </trkpt>
      <trkpt lat="45.20089" lon="5.98793">
        <ele>2132.34</ele>
        <time>2012-12-29T10:04:50Z</time>
      </trkpt>
      <trkpt lat="45.20089" lon="5.98789">
        <ele>2133.78</ele>
        <time>2012-12-29T10:04:57Z</time>
      </trkpt>
      <trkpt lat="45.20091" lon="5.98786">
        <ele>2135.71</ele>
        <time>2012-12-29T10:05:08Z</time>
      </trkpt>
      <trkpt lat="45.20092" lon="5.98781">
        <ele>2137.63</ele>
        <time>2012-12-29T10:05:23Z</time>
      </trkpt>
      <trkpt lat="45.20094" lon="5.98779">
        <ele>2139.07</ele>
        <time>2012-12-29T10:05:52Z</time>
      </trkpt>
      <trkpt lat="45.20095" lon="5.98778">
        <ele>2139.07</ele>
        <time>2012-12-29T10:06:08Z</time>
      </trkpt>
      <trkpt lat="45.20096" lon="5.98773">
        <ele>2140.99</ele>
        <time>2012-12-29T10:06:18Z</time>
      </trkpt>
      <trkpt lat="45.201" lon="5.98765">
        <ele>2142.44</ele>
        <time>2012-12-29T10:06:30Z</time>
      </trkpt>
      <trkpt lat="45.20102" lon="5.98761">
        <ele>2145.8</ele>
        <time>2012-12-29T10:06:47Z</time>
      </trkpt>
      <trkpt lat="45.20103" lon="5.98757">
        <ele>2147.24</ele>
        <time>2012-12-29T10:07:11Z</time>
      </trkpt>
      <trkpt lat="45.20103" lon="5.98754">
        <ele>2147.72</ele>
        <time>2012-12-29T10:07:17Z</time>
      </trkpt>
      <trkpt lat="45.20104" lon="5.98744">
        <ele>2149.65</ele>
        <time>2012-12-29T10:07:29Z</time>
      </trkpt>
      <trkpt lat="45.20106" lon="5.98741">
        <ele>2150.61</ele>
        <time>2012-12-29T10:07:50Z</time>
      </trkpt>
      <trkpt lat="45.20109" lon="5.98734">
        <ele>2151.57</ele>
        <time>2012-12-29T10:08:03Z</time>
      </trkpt>
      <trkpt lat="45.20112" lon="5.98734">
        <ele>2152.53</ele>
        <time>2012-12-29T10:08:28Z</time>
      </trkpt>
      <trkpt lat="45.20109" lon="5.98734">
        <ele>2154.45</ele>
        <time>2012-12-29T10:08:43Z</time>
      </trkpt>
      <trkpt lat="45.20107" lon="5.98733">
        <ele>2155.89</ele>
        <time>2012-12-29T10:08:57Z</time>
      </trkpt>
      <trkpt lat="45.20101" lon="5.98731">
        <ele>2156.86</ele>
        <time>2012-12-29T10:09:19Z</time>
      </trkpt>
      <trkpt lat="45.20097" lon="5.98733">
        <ele>2157.82</ele>
        <time>2012-12-29T10:09:32Z</time>
      </trkpt>
      <trkpt lat="45.20089" lon="5.98737">
        <ele>2160.22</ele>
        <time>2012-12-29T10:09:48Z</time>
      </trkpt>
      <trkpt lat="45.20079" lon="5.98744">
        <ele>2162.14</ele>
        <time>2012-12-29T10:10:04Z</time>
      </trkpt>
      <trkpt lat="45.20078" lon="5.98744">
        <ele>2163.1</ele>
        <time>2012-12-29T10:10:23Z</time>
      </trkpt>
      <trkpt lat="45.20078" lon="5.98743">
        <ele>2164.55</ele>
        <time>2012-12-29T10:10:42Z</time>
      </trkpt>
      <trkpt lat="45.20073" lon="5.98746">
        <ele>2165.99</ele>
        <time>2012-12-29T10:10:56Z</time>
      </trkpt>
      <trkpt lat="45.20071" lon="5.98745">
        <ele>2167.43</ele>
        <time>2012-12-29T10:11:13Z</time>
      </trkpt>
      <trkpt lat="45.2007" lon="5.98746">
        <ele>2168.39</ele>
        <time>2012-12-29T10:11:29Z</time>
      </trkpt>
      <trkpt lat="45.20061" lon="5.98751">
        <ele>2169.83</ele>
        <time>2012-12-29T10:11:44Z</time>
      </trkpt>
      <trkpt lat="45.20059" lon="5.98751">
        <ele>2170.79</ele>
        <time>2012-12-29T10:12:00Z</time>
      </trkpt>
      <trkpt lat="45.20057" lon="5.98754">
        <ele>2171.27</ele>
        <time>2012-12-29T10:12:18Z</time>
      </trkpt>
      <trkpt lat="45.20049" lon="5.98762">
        <ele>2173.2</ele>
        <time>2012-12-29T10:12:35Z</time>
      </trkpt>
      <trkpt lat="45.20045" lon="5.98766">
        <ele>2174.64</ele>
        <time>2012-12-29T10:12:49Z</time>
      </trkpt>
      <trkpt lat="45.20043" lon="5.98771">
        <ele>2176.08</ele>
        <time>2012-12-29T10:13:03Z</time>
      </trkpt>
      <trkpt lat="45.20041" lon="5.98768">
        <ele>2177.52</ele>
        <time>2012-12-29T10:13:21Z</time>
      </trkpt>
      <trkpt lat="45.20041" lon="5.98768">
        <ele>2177.52</ele>
        <time>2012-12-29T10:13:47Z</time>
      </trkpt>
      <trkpt lat="45.2004" lon="5.98765">
        <ele>2178</ele>
        <time>2012-12-29T10:14:00Z</time>
      </trkpt>
      <trkpt lat="45.20038" lon="5.9876">
        <ele>2178.97</ele>
        <time>2012-12-29T10:14:12Z</time>
      </trkpt>
      <trkpt lat="45.20039" lon="5.98756">
        <ele>2180.41</ele>
        <time>2012-12-29T10:14:31Z</time>
      </trkpt>
      <trkpt lat="45.20039" lon="5.98751">
        <ele>2180.41</ele>
        <time>2012-12-29T10:14:47Z</time>
      </trkpt>
      <trkpt lat="45.20043" lon="5.98744">
        <ele>2181.37</ele>
        <time>2012-12-29T10:14:59Z</time>
      </trkpt>
      <trkpt lat="45.20046" lon="5.98736">
        <ele>2183.29</ele>
        <time>2012-12-29T10:15:10Z</time>
      </trkpt>
      <trkpt lat="45.20048" lon="5.98734">
        <ele>2184.73</ele>
        <time>2012-12-29T10:15:22Z</time>
      </trkpt>
      <trkpt lat="45.20048" lon="5.98734">
        <ele>2185.69</ele>
        <time>2012-12-29T10:15:47Z</time>
      </trkpt>
      <trkpt lat="45.2005" lon="5.98728">
        <ele>2186.66</ele>
        <time>2012-12-29T10:16:02Z</time>
      </trkpt>
      <trkpt lat="45.20052" lon="5.98723">
        <ele>2188.58</ele>
        <time>2012-12-29T10:16:18Z</time>
      </trkpt>
      <trkpt lat="45.20056" lon="5.98716">
        <ele>2190.02</ele>
        <time>2012-12-29T10:16:29Z</time>
      </trkpt>
      <trkpt lat="45.20059" lon="5.98711">
        <ele>2191.94</ele>
        <time>2012-12-29T10:16:43Z</time>
      </trkpt>
      <trkpt lat="45.2006" lon="5.98708">
        <ele>2192.9</ele>
        <time>2012-12-29T10:17:05Z</time>
      </trkpt>
      <trkpt lat="45.20061" lon="5.98706">
        <ele>2193.87</ele>
        <time>2012-12-29T10:17:21Z</time>
      </trkpt>
      <trkpt lat="45.20062" lon="5.98702">
        <ele>2195.79</ele>
        <time>2012-12-29T10:17:34Z</time>
      </trkpt>
      <trkpt lat="45.20065" lon="5.98693">
        <ele>2197.71</ele>
        <time>2012-12-29T10:17:47Z</time>
      </trkpt>
      <trkpt lat="45.20066" lon="5.9869">
        <ele>2199.15</ele>
        <time>2012-12-29T10:18:01Z</time>
      </trkpt>
      <trkpt lat="45.20066" lon="5.98689">
        <ele>2200.11</ele>
        <time>2012-12-29T10:18:10Z</time>
      </trkpt>
      <trkpt lat="45.20069" lon="5.98681">
        <ele>2201.56</ele>
        <time>2012-12-29T10:18:22Z</time>
      </trkpt>
      <trkpt lat="45.2007" lon="5.98677">
        <ele>2202.04</ele>
        <time>2012-12-29T10:18:37Z</time>
      </trkpt>
      <trkpt lat="45.20068" lon="5.98676">
        <ele>2202.52</ele>
        <time>2012-12-29T10:18:58Z</time>
      </trkpt>
      <trkpt lat="45.20066" lon="5.98676">
        <ele>2203.48</ele>
        <time>2012-12-29T10:19:07Z</time>
      </trkpt>
      <trkpt lat="45.2006" lon="5.98679">
        <ele>2205.4</ele>
        <time>2012-12-29T10:19:23Z</time>
      </trkpt>
      <trkpt lat="45.20056" lon="5.98681">
        <ele>2208.29</ele>
        <time>2012-12-29T10:19:40Z</time>
      </trkpt>
      <trkpt lat="45.20053" lon="5.98682">
        <ele>2210.21</ele>
        <time>2012-12-29T10:19:56Z</time>
      </trkpt>
      <trkpt lat="45.2005" lon="5.98685">
        <ele>2211.17</ele>
        <time>2012-12-29T10:20:20Z</time>
      </trkpt>
      <trkpt lat="45.2005" lon="5.98683">
        <ele>2211.65</ele>
        <time>2012-12-29T10:20:42Z</time>
      </trkpt>
      <trkpt lat="45.20049" lon="5.98677">
        <ele>2213.57</ele>
        <time>2012-12-29T10:20:55Z</time>
      </trkpt>
      <trkpt lat="45.20049" lon="5.98668">
        <ele>2215.5</ele>
        <time>2012-12-29T10:21:10Z</time>
      </trkpt>
      <trkpt lat="45.20047" lon="5.98668">
        <ele>2216.94</ele>
        <time>2012-12-29T10:21:16Z</time>
      </trkpt>
      <trkpt lat="45.2004" lon="5.98672">
        <ele>2218.38</ele>
        <time>2012-12-29T10:21:30Z</time>
      </trkpt>
      <trkpt lat="45.20028" lon="5.98679">
        <ele>2221.74</ele>
        <time>2012-12-29T10:21:47Z</time>
      </trkpt>
      <trkpt lat="45.20021" lon="5.98686">
        <ele>2223.19</ele>
        <time>2012-12-29T10:22:03Z</time>
      </trkpt>
      <trkpt lat="45.20012" lon="5.987">
        <ele>2224.63</ele>
        <time>2012-12-29T10:22:22Z</time>
      </trkpt>
      <trkpt lat="45.20011" lon="5.98704">
        <ele>2226.07</ele>
        <time>2012-12-29T10:22:34Z</time>
      </trkpt>
      <trkpt lat="45.20006" lon="5.98708">
        <ele>2227.99</ele>
        <time>2012-12-29T10:22:57Z</time>
      </trkpt>
      <trkpt lat="45.19998" lon="5.98716">
        <ele>2230.88</ele>
        <time>2012-12-29T10:23:14Z</time>
      </trkpt>
      <trkpt lat="45.19993" lon="5.98723">
        <ele>2231.84</ele>
        <time>2012-12-29T10:23:28Z</time>
      </trkpt>
      <trkpt lat="45.19991" lon="5.98726">
        <ele>2232.32</ele>
        <time>2012-12-29T10:23:34Z</time>
      </trkpt>
      <trkpt lat="45.19985" lon="5.98731">
        <ele>2233.76</ele>
        <time>2012-12-29T10:23:47Z</time>
      </trkpt>
      <trkpt lat="45.19984" lon="5.98731">
        <ele>2233.76</ele>
        <time>2012-12-29T10:23:49Z</time>
      </trkpt>
      <trkpt lat="45.19977" lon="5.98745">
        <ele>2234.72</ele>
        <time>2012-12-29T10:24:04Z</time>
      </trkpt>
      <trkpt lat="45.19977" lon="5.98747">
        <ele>2235.2</ele>
        <time>2012-12-29T10:24:22Z</time>
      </trkpt>
      <trkpt lat="45.19974" lon="5.98746">
        <ele>2235.68</ele>
        <time>2012-12-29T10:24:38Z</time>
      </trkpt>
      <trkpt lat="45.19976" lon="5.98746">
        <ele>2236.16</ele>
        <time>2012-12-29T10:24:55Z</time>
      </trkpt>
      <trkpt lat="45.19978" lon="5.98748">
        <ele>2236.16</ele>
        <time>2012-12-29T10:25:14Z</time>
      </trkpt>
      <trkpt lat="45.19975" lon="5.9875">
        <ele>2236.16</ele>
        <time>2012-12-29T10:25:31Z</time>
      </trkpt>
      <trkpt lat="45.19976" lon="5.98751">
        <ele>2236.16</ele>
        <time>2012-12-29T10:25:48Z</time>
      </trkpt>
      <trkpt lat="45.19976" lon="5.9875">
        <ele>2236.64</ele>
        <time>2012-12-29T10:26:13Z</time>
      </trkpt>
      <trkpt lat="45.19976" lon="5.9875">
        <ele>2236.64</ele>
        <time>2012-12-29T10:26:26Z</time>
      </trkpt>
      <trkpt lat="45.19976" lon="5.98751">
        <ele>2236.64</ele>
        <time>2012-12-29T10:26:47Z</time>
      </trkpt>
      <trkpt lat="45.19975" lon="5.98752">
        <ele>2236.64</ele>
        <time>2012-12-29T10:27:16Z</time>
      </trkpt>
      <trkpt lat="45.19976" lon="5.98751">
        <ele>2237.13</ele>
        <time>2012-12-29T10:27:44Z</time>
      </trkpt>
      <trkpt lat="45.19976" lon="5.98751">
        <ele>2237.13</ele>
        <time>2012-12-29T10:28:05Z</time>
      </trkpt>
      <trkpt lat="45.19976" lon="5.9875">
        <ele>2237.61</ele>
        <time>2012-12-29T10:28:32Z</time>
      </trkpt>
      <trkpt lat="45.19976" lon="5.98749">
        <ele>2237.61</ele>
        <time>2012-12-29T10:28:58Z</time>
      </trkpt>
      <trkpt lat="45.19976" lon="5.9875">
        <ele>2237.61</ele>
        <time>2012-12-29T10:29:24Z</time>
      </trkpt>
      <trkpt lat="45.19976" lon="5.98752">
        <ele>2238.09</ele>
        <time>2012-12-29T10:29:45Z</time>
      </trkpt>
      <trkpt lat="45.19976" lon="5.98752">
        <ele>2238.09</ele>
        <time>2012-12-29T10:30:09Z</time>
      </trkpt>
      <trkpt lat="45.19976" lon="5.98753">
        <ele>2238.09</ele>
        <time>2012-12-29T10:30:35Z</time>
      </trkpt>
      <trkpt lat="45.19976" lon="5.98753">
        <ele>2238.57</ele>
        <time>2012-12-29T10:30:58Z</time>
      </trkpt>
      <trkpt lat="45.19976" lon="5.98753">
        <ele>2238.57</ele>
        <time>2012-12-29T10:31:00Z</time>
      </trkpt>
      <trkpt lat="45.19965" lon="5.9877">
        <ele>2238.57</ele>
        <time>2012-12-29T10:31:16Z</time>
      </trkpt>
      <trkpt lat="45.19957" lon="5.98784">
        <ele>2238.57</ele>
        <time>2012-12-29T10:31:31Z</time>
      </trkpt>
      <trkpt lat="45.1995" lon="5.988">
        <ele>2240.01</ele>
        <time>2012-12-29T10:31:45Z</time>
      </trkpt>
      <trkpt lat="45.19948" lon="5.98811">
        <ele>2240.97</ele>
        <time>2012-12-29T10:32:02Z</time>
      </trkpt>
      <trkpt lat="45.19947" lon="5.98815">
        <ele>2242.41</ele>
        <time>2012-12-29T10:32:16Z</time>
      </trkpt>
      <trkpt lat="45.19947" lon="5.98827">
        <ele>2242.89</ele>
        <time>2012-12-29T10:32:30Z</time>
      </trkpt>
      <trkpt lat="45.19946" lon="5.98838">
        <ele>2242.89</ele>
        <time>2012-12-29T10:32:44Z</time>
      </trkpt>
      <trkpt lat="45.19947" lon="5.98838">
        <ele>2241.93</ele>
        <time>2012-12-29T10:33:05Z</time>
      </trkpt>
      <trkpt lat="45.19948" lon="5.9885">
        <ele>2243.37</ele>
        <time>2012-12-29T10:33:19Z</time>
      </trkpt>
      <trkpt lat="45.19945" lon="5.98859">
        <ele>2245.3</ele>
        <time>2012-12-29T10:33:36Z</time>
      </trkpt>
      <trkpt lat="45.19945" lon="5.9886">
        <ele>2245.78</ele>
        <time>2012-12-29T10:34:01Z</time>
      </trkpt>
      <trkpt lat="45.19941" lon="5.98873">
        <ele>2247.7</ele>
        <time>2012-12-29T10:34:18Z</time>
      </trkpt>
      <trkpt lat="45.19939" lon="5.98885">
        <ele>2250.1</ele>
        <time>2012-12-29T10:34:37Z</time>
      </trkpt>
      <trkpt lat="45.19937" lon="5.98892">
        <ele>2251.06</ele>
        <time>2012-12-29T10:34:59Z</time>
      </trkpt>
      <trkpt lat="45.19932" lon="5.98902">
        <ele>2252.99</ele>
        <time>2012-12-29T10:35:14Z</time>
      </trkpt>
      <trkpt lat="45.19929" lon="5.98914">
        <ele>2255.39</ele>
        <time>2012-12-29T10:35:31Z</time>
      </trkpt>
      <trkpt lat="45.19927" lon="5.98925">
        <ele>2257.79</ele>
        <time>2012-12-29T10:35:48Z</time>
      </trkpt>
      <trkpt lat="45.19925" lon="5.98932">
        <ele>2260.2</ele>
        <time>2012-12-29T10:36:05Z</time>
      </trkpt>
      <trkpt lat="45.19923" lon="5.98938">
        <ele>2261.16</ele>
        <time>2012-12-29T10:36:30Z</time>
      </trkpt>
      <trkpt lat="45.19919" lon="5.98949">
        <ele>2263.08</ele>
        <time>2012-12-29T10:36:49Z</time>
      </trkpt>
      <trkpt lat="45.19915" lon="5.98959">
        <ele>2265</ele>
        <time>2012-12-29T10:37:04Z</time>
      </trkpt>
      <trkpt lat="45.19914" lon="5.98963">
        <ele>2266.45</ele>
        <time>2012-12-29T10:37:25Z</time>
      </trkpt>
      <trkpt lat="45.19912" lon="5.98974">
        <ele>2268.37</ele>
        <time>2012-12-29T10:37:42Z</time>
      </trkpt>
      <trkpt lat="45.19912" lon="5.98978">
        <ele>2269.81</ele>
        <time>2012-12-29T10:38:02Z</time>
      </trkpt>
      <trkpt lat="45.19913" lon="5.98979">
        <ele>2270.77</ele>
        <time>2012-12-29T10:38:31Z</time>
      </trkpt>
      <trkpt lat="45.19913" lon="5.98988">
        <ele>2271.73</ele>
        <time>2012-12-29T10:38:46Z</time>
      </trkpt>
      <trkpt lat="45.19913" lon="5.98992">
        <ele>2273.66</ele>
        <time>2012-12-29T10:39:04Z</time>
      </trkpt>
      <trkpt lat="45.19913" lon="5.98992">
        <ele>2274.14</ele>
        <time>2012-12-29T10:39:31Z</time>
      </trkpt>
      <trkpt lat="45.19913" lon="5.98996">
        <ele>2274.62</ele>
        <time>2012-12-29T10:40:02Z</time>
      </trkpt>
      <trkpt lat="45.19914" lon="5.99008">
        <ele>2277.02</ele>
        <time>2012-12-29T10:40:19Z</time>
      </trkpt>
      <trkpt lat="45.19917" lon="5.99017">
        <ele>2278.94</ele>
        <time>2012-12-29T10:40:35Z</time>
      </trkpt>
      <trkpt lat="45.19919" lon="5.99028">
        <ele>2281.35</ele>
        <time>2012-12-29T10:40:51Z</time>
      </trkpt>
      <trkpt lat="45.19919" lon="5.9904">
        <ele>2283.75</ele>
        <time>2012-12-29T10:41:08Z</time>
      </trkpt>
      <trkpt lat="45.19922" lon="5.99047">
        <ele>2286.15</ele>
        <time>2012-12-29T10:41:25Z</time>
      </trkpt>
      <trkpt lat="45.19922" lon="5.99048">
        <ele>2287.59</ele>
        <time>2012-12-29T10:41:56Z</time>
      </trkpt>
      <trkpt lat="45.19927" lon="5.99059">
        <ele>2289.04</ele>
        <time>2012-12-29T10:42:13Z</time>
      </trkpt>
      <trkpt lat="45.19932" lon="5.99072">
        <ele>2291.44</ele>
        <time>2012-12-29T10:42:30Z</time>
      </trkpt>
      <trkpt lat="45.19934" lon="5.99077">
        <ele>2293.36</ele>
        <time>2012-12-29T10:42:47Z</time>
      </trkpt>
      <trkpt lat="45.19935" lon="5.99081">
        <ele>2296.73</ele>
        <time>2012-12-29T10:43:05Z</time>
      </trkpt>
      <trkpt lat="45.19936" lon="5.99083">
        <ele>2298.65</ele>
        <time>2012-12-29T10:43:21Z</time>
      </trkpt>
      <trkpt lat="45.1993" lon="5.99093">
        <ele>2300.09</ele>
        <time>2012-12-29T10:43:51Z</time>
      </trkpt>
      <trkpt lat="45.19929" lon="5.99097">
        <ele>2302.01</ele>
        <time>2012-12-29T10:44:04Z</time>
      </trkpt>
      <trkpt lat="45.19936" lon="5.99113">
        <ele>2303.46</ele>
        <time>2012-12-29T10:44:25Z</time>
      </trkpt>
      <trkpt lat="45.19936" lon="5.99118">
        <ele>2306.82</ele>
        <time>2012-12-29T10:44:32Z</time>
      </trkpt>
      <trkpt lat="45.19935" lon="5.9912">
        <ele>2309.7</ele>
        <time>2012-12-29T10:44:36Z</time>
      </trkpt>
      <trkpt lat="45.19934" lon="5.9912">
        <ele>2309.7</ele>
        <time>2012-12-29T10:44:37Z</time>
      </trkpt>
      <trkpt lat="45.19932" lon="5.9912">
        <ele>2310.67</ele>
        <time>2012-12-29T10:44:56Z</time>
      </trkpt>
      <trkpt lat="45.19929" lon="5.9912">
        <ele>2308.74</ele>
        <time>2012-12-29T10:45:17Z</time>
      </trkpt>
      <trkpt lat="45.19922" lon="5.99117">
        <ele>2309.22</ele>
        <time>2012-12-29T10:45:31Z</time>
      </trkpt>
      <trkpt lat="45.19914" lon="5.99114">
        <ele>2311.63</ele>
        <time>2012-12-29T10:45:46Z</time>
      </trkpt>
      <trkpt lat="45.19913" lon="5.99113">
        <ele>2313.07</ele>
        <time>2012-12-29T10:46:06Z</time>
      </trkpt>
      <trkpt lat="45.19912" lon="5.99111">
        <ele>2313.07</ele>
        <time>2012-12-29T10:46:23Z</time>
      </trkpt>
      <trkpt lat="45.19902" lon="5.99106">
        <ele>2314.99</ele>
        <time>2012-12-29T10:46:41Z</time>
      </trkpt>
      <trkpt lat="45.19896" lon="5.99098">
        <ele>2316.91</ele>
        <time>2012-12-29T10:46:58Z</time>
      </trkpt>
      <trkpt lat="45.19888" lon="5.99091">
        <ele>2320.28</ele>
        <time>2012-12-29T10:47:17Z</time>
      </trkpt>
      <trkpt lat="45.19888" lon="5.9909">
        <ele>2322.2</ele>
        <time>2012-12-29T10:47:39Z</time>
      </trkpt>
      <trkpt lat="45.19882" lon="5.99083">
        <ele>2323.16</ele>
        <time>2012-12-29T10:48:01Z</time>
      </trkpt>
      <trkpt lat="45.19871" lon="5.99075">
        <ele>2326.05</ele>
        <time>2012-12-29T10:48:22Z</time>
      </trkpt>
      <trkpt lat="45.19864" lon="5.9907">
        <ele>2328.93</ele>
        <time>2012-12-29T10:48:39Z</time>
      </trkpt>
      <trkpt lat="45.19862" lon="5.99068">
        <ele>2330.85</ele>
        <time>2012-12-29T10:48:43Z</time>
      </trkpt>
      <trkpt lat="45.19854" lon="5.99062">
        <ele>2332.78</ele>
        <time>2012-12-29T10:49:01Z</time>
      </trkpt>
      <trkpt lat="45.19848" lon="5.99053">
        <ele>2334.22</ele>
        <time>2012-12-29T10:49:18Z</time>
      </trkpt>
      <trkpt lat="45.19842" lon="5.99041">
        <ele>2337.58</ele>
        <time>2012-12-29T10:49:37Z</time>
      </trkpt>
      <trkpt lat="45.19841" lon="5.99039">
        <ele>2339.51</ele>
        <time>2012-12-29T10:50:00Z</time>
      </trkpt>
      <trkpt lat="45.19837" lon="5.99026">
        <ele>2340.95</ele>
        <time>2012-12-29T10:50:16Z</time>
      </trkpt>
      <trkpt lat="45.19838" lon="5.9901">
        <ele>2342.87</ele>
        <time>2012-12-29T10:50:33Z</time>
      </trkpt>
      <trkpt lat="45.1984" lon="5.98998">
        <ele>2345.27</ele>
        <time>2012-12-29T10:50:51Z</time>
      </trkpt>
      <trkpt lat="45.19841" lon="5.99001">
        <ele>2345.75</ele>
        <time>2012-12-29T10:51:13Z</time>
      </trkpt>
      <trkpt lat="45.19833" lon="5.99011">
        <ele>2348.16</ele>
        <time>2012-12-29T10:51:33Z</time>
      </trkpt>
      <trkpt lat="45.19824" lon="5.99022">
        <ele>2351.04</ele>
        <time>2012-12-29T10:51:50Z</time>
      </trkpt>
      <trkpt lat="45.19819" lon="5.9903">
        <ele>2352.48</ele>
        <time>2012-12-29T10:52:05Z</time>
      </trkpt>
      <trkpt lat="45.1982" lon="5.99029">
        <ele>2354.41</ele>
        <time>2012-12-29T10:52:32Z</time>
      </trkpt>
      <trkpt lat="45.19816" lon="5.99037">
        <ele>2355.37</ele>
        <time>2012-12-29T10:52:51Z</time>
      </trkpt>
      <trkpt lat="45.19815" lon="5.99049">
        <ele>2357.29</ele>
        <time>2012-12-29T10:53:08Z</time>
      </trkpt>
      <trkpt lat="45.19815" lon="5.99053">
        <ele>2360.17</ele>
        <time>2012-12-29T10:53:27Z</time>
      </trkpt>
      <trkpt lat="45.19812" lon="5.9905">
        <ele>2361.14</ele>
        <time>2012-12-29T10:53:52Z</time>
      </trkpt>
      <trkpt lat="45.19805" lon="5.99039">
        <ele>2363.06</ele>
        <time>2012-12-29T10:54:10Z</time>
      </trkpt>
      <trkpt lat="45.19804" lon="5.9903">
        <ele>2366.42</ele>
        <time>2012-12-29T10:54:20Z</time>
      </trkpt>
      <trkpt lat="45.19804" lon="5.99024">
        <ele>2369.79</ele>
        <time>2012-12-29T10:54:26Z</time>
      </trkpt>
      <trkpt lat="45.19804" lon="5.99018">
        <ele>2369.31</ele>
        <time>2012-12-29T10:54:45Z</time>
      </trkpt>
      <trkpt lat="45.19804" lon="5.99019">
        <ele>2369.31</ele>
        <time>2012-12-29T10:55:13Z</time>
      </trkpt>
      <trkpt lat="45.19796" lon="5.9903">
        <ele>2370.75</ele>
        <time>2012-12-29T10:55:29Z</time>
      </trkpt>
      <trkpt lat="45.19788" lon="5.99044">
        <ele>2373.15</ele>
        <time>2012-12-29T10:55:49Z</time>
      </trkpt>
      <trkpt lat="45.1979" lon="5.99057">
        <ele>2375.55</ele>
        <time>2012-12-29T10:56:06Z</time>
      </trkpt>
      <trkpt lat="45.1979" lon="5.99065">
        <ele>2377.96</ele>
        <time>2012-12-29T10:56:21Z</time>
      </trkpt>
      <trkpt lat="45.19789" lon="5.99065">
        <ele>2379.4</ele>
        <time>2012-12-29T10:56:47Z</time>
      </trkpt>
      <trkpt lat="45.19785" lon="5.99072">
        <ele>2380.36</ele>
        <time>2012-12-29T10:57:05Z</time>
      </trkpt>
      <trkpt lat="45.19782" lon="5.99078">
        <ele>2382.76</ele>
        <time>2012-12-29T10:57:19Z</time>
      </trkpt>
      <trkpt lat="45.19783" lon="5.99085">
        <ele>2384.69</ele>
        <time>2012-12-29T10:57:36Z</time>
      </trkpt>
      <trkpt lat="45.19783" lon="5.99085">
        <ele>2385.17</ele>
        <time>2012-12-29T10:58:06Z</time>
      </trkpt>
      <trkpt lat="45.19782" lon="5.99085">
        <ele>2385.65</ele>
        <time>2012-12-29T10:58:30Z</time>
      </trkpt>
      <trkpt lat="45.19782" lon="5.99086">
        <ele>2385.65</ele>
        <time>2012-12-29T10:58:51Z</time>
      </trkpt>
      <trkpt lat="45.19783" lon="5.99086">
        <ele>2385.65</ele>
        <time>2012-12-29T10:59:12Z</time>
      </trkpt>
      <trkpt lat="45.19783" lon="5.99085">
        <ele>2386.13</ele>
        <time>2012-12-29T10:59:27Z</time>
      </trkpt>
      <trkpt lat="45.19783" lon="5.99089">
        <ele>2386.13</ele>
        <time>2012-12-29T10:59:49Z</time>
      </trkpt>
      <trkpt lat="45.1978" lon="5.99098">
        <ele>2388.05</ele>
        <time>2012-12-29T11:00:14Z</time>
      </trkpt>
      <trkpt lat="45.1977" lon="5.99111">
        <ele>2390.46</ele>
        <time>2012-12-29T11:00:32Z</time>
      </trkpt>
      <trkpt lat="45.19763" lon="5.99126">
        <ele>2393.34</ele>
        <time>2012-12-29T11:00:50Z</time>
      </trkpt>
      <trkpt lat="45.19757" lon="5.99137">
        <ele>2396.7</ele>
        <time>2012-12-29T11:01:08Z</time>
      </trkpt>
      <trkpt lat="45.19754" lon="5.99151">
        <ele>2399.11</ele>
        <time>2012-12-29T11:01:24Z</time>
      </trkpt>
      <trkpt lat="45.19754" lon="5.99155">
        <ele>2400.55</ele>
        <time>2012-12-29T11:01:45Z</time>
      </trkpt>
      <trkpt lat="45.19751" lon="5.99162">
        <ele>2402.47</ele>
        <time>2012-12-29T11:02:12Z</time>
      </trkpt>
      <trkpt lat="45.19747" lon="5.99176">
        <ele>2405.36</ele>
        <time>2012-12-29T11:02:33Z</time>
      </trkpt>
      <trkpt lat="45.19746" lon="5.99178">
        <ele>2407.76</ele>
        <time>2012-12-29T11:02:56Z</time>
      </trkpt>
      <trkpt lat="45.19745" lon="5.99193">
        <ele>2410.16</ele>
        <time>2012-12-29T11:03:18Z</time>
      </trkpt>
      <trkpt lat="45.19745" lon="5.99207">
        <ele>2413.05</ele>
        <time>2012-12-29T11:03:37Z</time>
      </trkpt>
      <trkpt lat="45.19743" lon="5.99206">
        <ele>2414.49</ele>
        <time>2012-12-29T11:04:07Z</time>
      </trkpt>
      <trkpt lat="45.19743" lon="5.99205">
        <ele>2414.49</ele>
        <time>2012-12-29T11:04:08Z</time>
      </trkpt>
      <trkpt lat="45.19741" lon="5.99194">
        <ele>2414.49</ele>
        <time>2012-12-29T11:04:13Z</time>
      </trkpt>
      <trkpt lat="45.19737" lon="5.99178">
        <ele>2414.49</ele>
        <time>2012-12-29T11:04:19Z</time>
      </trkpt>
      <trkpt lat="45.19737" lon="5.99172">
        <ele>2439</ele>
        <time>2012-12-29T11:04:21Z</time>
      </trkpt>
      <trkpt lat="45.19737" lon="5.99172">
        <ele>2408.72</ele>
        <time>2012-12-29T11:04:22Z</time>
      </trkpt>
      <trkpt lat="45.19736" lon="5.99171">
        <ele>2403.43</ele>
        <time>2012-12-29T11:04:23Z</time>
      </trkpt>
      <trkpt lat="45.19736" lon="5.99171">
        <ele>2407.76</ele>
        <time>2012-12-29T11:04:24Z</time>
      </trkpt>
      <trkpt lat="45.19736" lon="5.99172">
        <ele>2411.6</ele>
        <time>2012-12-29T11:04:34Z</time>
      </trkpt>
      <trkpt lat="45.19737" lon="5.99171">
        <ele>2412.57</ele>
        <time>2012-12-29T11:04:48Z</time>
      </trkpt>
      <trkpt lat="45.19738" lon="5.99172">
        <ele>2412.57</ele>
        <time>2012-12-29T11:05:03Z</time>
      </trkpt>
      <trkpt lat="45.19738" lon="5.99173">
        <ele>2412.09</ele>
        <time>2012-12-29T11:05:30Z</time>
      </trkpt>
      <trkpt lat="45.19737" lon="5.99174">
        <ele>2412.09</ele>
        <time>2012-12-29T11:05:52Z</time>
      </trkpt>
      <trkpt lat="45.19737" lon="5.99174">
        <ele>2411.6</ele>
        <time>2012-12-29T11:06:13Z</time>
      </trkpt>
      <trkpt lat="45.19727" lon="5.99162">
        <ele>2414.49</ele>
        <time>2012-12-29T11:06:33Z</time>
      </trkpt>
      <trkpt lat="45.19724" lon="5.99159">
        <ele>2415.45</ele>
        <time>2012-12-29T11:06:51Z</time>
      </trkpt>
      <trkpt lat="45.19718" lon="5.99155">
        <ele>2417.37</ele>
        <time>2012-12-29T11:07:09Z</time>
      </trkpt>
      <trkpt lat="45.19718" lon="5.99164">
        <ele>2418.33</ele>
        <time>2012-12-29T11:07:40Z</time>
      </trkpt>
      <trkpt lat="45.1972" lon="5.99167">
        <ele>2419.78</ele>
        <time>2012-12-29T11:08:00Z</time>
      </trkpt>
      <trkpt lat="45.1972" lon="5.99176">
        <ele>2421.22</ele>
        <time>2012-12-29T11:08:23Z</time>
      </trkpt>
      <trkpt lat="45.19723" lon="5.99186">
        <ele>2422.66</ele>
        <time>2012-12-29T11:08:38Z</time>
      </trkpt>
      <trkpt lat="45.19724" lon="5.99195">
        <ele>2425.06</ele>
        <time>2012-12-29T11:08:55Z</time>
      </trkpt>
      <trkpt lat="45.19725" lon="5.99203">
        <ele>2427.47</ele>
        <time>2012-12-29T11:09:20Z</time>
      </trkpt>
      <trkpt lat="45.19725" lon="5.99206">
        <ele>2428.43</ele>
        <time>2012-12-29T11:09:39Z</time>
      </trkpt>
      <trkpt lat="45.19726" lon="5.9922">
        <ele>2431.79</ele>
        <time>2012-12-29T11:09:55Z</time>
      </trkpt>
      <trkpt lat="45.19726" lon="5.99225">
        <ele>2432.27</ele>
        <time>2012-12-29T11:10:17Z</time>
      </trkpt>
      <trkpt lat="45.19727" lon="5.99228">
        <ele>2432.75</ele>
        <time>2012-12-29T11:10:44Z</time>
      </trkpt>
      <trkpt lat="45.19725" lon="5.99246">
        <ele>2434.68</ele>
        <time>2012-12-29T11:11:02Z</time>
      </trkpt>
      <trkpt lat="45.19724" lon="5.99253">
        <ele>2436.6</ele>
        <time>2012-12-29T11:11:17Z</time>
      </trkpt>
      <trkpt lat="45.19721" lon="5.99262">
        <ele>2439</ele>
        <time>2012-12-29T11:11:35Z</time>
      </trkpt>
      <trkpt lat="45.19721" lon="5.99262">
        <ele>2440.44</ele>
        <time>2012-12-29T11:11:51Z</time>
      </trkpt>
      <trkpt lat="45.19721" lon="5.9926">
        <ele>2440.92</ele>
        <time>2012-12-29T11:12:18Z</time>
      </trkpt>
      <trkpt lat="45.19714" lon="5.99246">
        <ele>2443.81</ele>
        <time>2012-12-29T11:12:40Z</time>
      </trkpt>
      <trkpt lat="45.19707" lon="5.99236">
        <ele>2446.69</ele>
        <time>2012-12-29T11:12:55Z</time>
      </trkpt>
      <trkpt lat="45.19705" lon="5.99232">
        <ele>2450.54</ele>
        <time>2012-12-29T11:13:01Z</time>
      </trkpt>
      <trkpt lat="45.19705" lon="5.99232">
        <ele>2449.1</ele>
        <time>2012-12-29T11:13:36Z</time>
      </trkpt>
      <trkpt lat="45.19698" lon="5.99223">
        <ele>2450.54</ele>
        <time>2012-12-29T11:13:53Z</time>
      </trkpt>
    </trkseg>
  </trk>
</gpx>